HIGHLAND LAKE: From 05/12/2020 00:00 to 07/13/2020 00:00

Date LAKE ELEVATION [FT] OBSERVED RELEASE PRECIPITATION INCREMENT [IN] PRECIPITATION TOTAL [IN] AIR TEMPERATURE [F] RELATIVE HUMIDITY [%]
07/11/2020 17:00 1294.71 9.0 0.00 -- 80.8 72.0
07/11/2020 16:00 1294.69 8.0 0.00 -- 82.1 65.0
07/11/2020 15:00 1294.71 7.0 0.00 -- 80.4 72.0
07/11/2020 14:00 1294.70 9.0 0.00 -- 80.0 69.0
07/11/2020 13:00 1294.70 9.0 0.00 -- 77.3 78.0
07/11/2020 12:00 1294.70 9.0 0.00 -- 71.8 100.0
07/11/2020 11:00 1294.70 9.0 0.00 -- 70.0 100.0
07/11/2020 10:00 1294.71 9.0 0.01 -- 69.1 100.0
07/11/2020 09:00 1294.72 9.0 0.04 -- 68.9 100.0
07/11/2020 08:00 1294.72 11.0 0.02 -- 68.5 100.0
07/11/2020 07:00 1294.72 10.0 0.02 -- 68.4 100.0
07/11/2020 06:00 1294.72 10.0 0.01 -- 68.4 100.0
07/11/2020 05:00 1294.72 10.0 0.04 -- 68.4 100.0
07/11/2020 04:00 1294.72 11.0 0.00 -- 68.7 100.0
07/11/2020 03:00 1294.70 11.0 0.08 -- 69.2 100.0
07/11/2020 02:00 1294.73 9.0 0.24 -- 68.8 100.0
07/11/2020 01:00 1294.70 11.0 0.02 -- 68.7 100.0
07/11/2020 00:00 1294.70 8.0 0.04 -- 69.0 100.0
07/10/2020 23:00 1294.69 7.0 0.00 -- 69.7 100.0
07/10/2020 22:00 1294.69 7.0 0.01 -- 70.1 100.0
07/10/2020 21:00 1294.69 6.0 0.03 -- 70.4 100.0
07/10/2020 20:00 1294.70 7.0 0.00 -- 72.8 96.0
07/10/2020 19:00 1294.69 6.0 0.00 -- 75.7 76.0
07/10/2020 18:00 1294.69 6.0 0.00 -- 76.8 70.0
07/10/2020 17:00 1294.69 7.0 0.00 -- 79.5 66.0
07/10/2020 16:00 1294.68 6.0 0.00 -- 81.0 61.0
07/10/2020 15:00 1294.68 6.0 0.00 -- 83.1 55.0
07/10/2020 14:00 1294.68 5.0 0.00 -- 82.2 57.0
07/10/2020 13:00 1294.68 6.0 0.00 -- 82.3 57.0
07/10/2020 12:00 1294.68 6.0 0.00 -- 82.3 58.0
07/10/2020 11:00 1294.69 6.0 0.00 -- 82.6 59.0
07/10/2020 10:00 1294.69 7.0 0.00 -- 78.1 75.0
07/10/2020 09:00 1294.69 7.0 0.00 -- 70.8 99.0
07/10/2020 08:00 1294.69 7.0 0.00 -- 69.2 100.0
07/10/2020 07:00 1294.69 7.0 0.00 -- 66.8 100.0
07/10/2020 06:00 1294.69 7.0 0.00 -- 67.2 100.0
07/10/2020 05:00 1294.69 7.0 0.00 -- 67.8 100.0
07/10/2020 04:00 1294.69 7.0 0.00 -- 68.6 100.0
07/10/2020 03:00 1294.69 7.0 0.00 -- 69.7 100.0
07/10/2020 02:00 1294.69 7.0 0.00 -- 70.6 100.0
07/10/2020 01:00 1294.70 7.0 0.00 -- 70.3 100.0
07/10/2020 00:00 1294.70 7.0 0.00 0.08 70.2 100.0
07/09/2020 23:00 1294.70 8.0 0.00 -- 71.8 100.0
07/09/2020 22:00 1294.69 8.0 0.00 -- 73.5 100.0
07/09/2020 21:00 1294.69 8.0 0.00 -- 77.8 85.0
07/09/2020 20:00 1294.70 7.0 0.00 -- 82.0 67.0
07/09/2020 19:00 1294.70 8.0 0.00 -- 86.4 51.0
07/09/2020 18:00 1294.70 8.0 0.00 -- 87.6 49.0
07/09/2020 17:00 1294.69 8.0 0.00 -- 86.2 56.0
07/09/2020 16:00 1294.70 7.0 0.00 -- 87.6 50.0
07/09/2020 15:00 1294.70 7.0 0.00 -- 87.6 51.0
07/09/2020 14:00 1294.70 8.0 0.00 -- 84.1 59.0
07/09/2020 13:00 1294.70 8.0 0.00 -- 83.1 60.0
07/09/2020 12:00 1294.70 8.0 0.00 -- 81.9 66.0
07/09/2020 11:00 1294.70 8.0 0.00 -- 77.3 79.0
07/09/2020 10:00 1294.70 8.0 0.00 -- 71.0 100.0
07/09/2020 09:00 1294.70 8.0 0.00 -- 68.3 100.0
07/09/2020 08:00 1294.70 7.0 0.00 -- 67.3 100.0
07/09/2020 07:00 1294.70 8.0 0.00 -- 67.1 100.0
07/09/2020 06:00 1294.70 8.0 0.00 -- 67.2 100.0
07/09/2020 05:00 1294.69 8.0 0.00 -- 67.2 100.0
07/09/2020 04:00 1294.70 7.0 0.00 -- 67.7 100.0
07/09/2020 03:00 1294.70 7.0 0.00 -- 66.8 100.0
07/09/2020 02:00 1294.70 8.0 0.00 -- 66.9 100.0
07/09/2020 01:00 1294.70 7.0 0.00 -- 64.6 100.0
07/09/2020 00:00 1294.70 8.0 0.00 0.00 65.4 100.0
07/08/2020 23:00 1294.70 9.0 0.00 -- 66.7 100.0
07/08/2020 22:00 1294.70 9.0 0.00 -- 67.9 100.0
07/08/2020 21:00 1294.68 7.0 0.00 -- 70.0 100.0
07/08/2020 20:00 1294.70 6.0 0.00 -- 69.2 100.0
07/08/2020 19:00 1294.68 8.0 0.00 -- 67.9 100.0
07/08/2020 18:00 1294.66 8.0 0.31 -- 67.8 100.0
07/08/2020 17:00 1294.67 5.0 0.01 -- 75.4 91.0
07/08/2020 16:00 1294.65 3.0 0.00 -- 79.6 68.0
07/08/2020 15:00 1294.66 3.0 0.00 -- 81.0 65.0
07/08/2020 14:00 1294.65 3.0 0.00 -- 79.2 66.0
07/08/2020 13:00 1294.65 2.0 0.00 -- 77.6 73.0
07/08/2020 12:00 1294.65 3.0 0.00 -- 74.0 80.0
07/08/2020 11:00 1294.66 3.0 0.00 -- 71.5 88.0
07/08/2020 10:00 1294.66 3.0 0.00 -- 68.0 100.0
07/08/2020 09:00 1294.67 3.0 0.00 -- 66.7 100.0
07/08/2020 08:00 1294.66 4.0 0.00 -- 66.6 100.0
07/08/2020 07:00 1294.66 4.0 0.00 -- 65.9 100.0
07/08/2020 06:00 1294.66 4.0 0.00 -- 65.3 100.0
07/08/2020 05:00 1294.67 4.0 0.00 -- 65.4 100.0
07/08/2020 04:00 1294.67 4.0 0.00 -- 65.7 100.0
07/08/2020 03:00 1294.67 4.0 0.00 -- 66.2 100.0
07/08/2020 02:00 1294.67 5.0 0.00 -- 66.5 98.0
07/08/2020 01:00 1294.66 5.0 0.00 -- 67.0 93.0
07/08/2020 00:00 1294.66 4.0 0.00 0.32 67.6 88.0
07/07/2020 23:00 1294.67 4.0 0.00 -- 68.3 87.0
07/07/2020 22:00 1294.67 4.0 0.00 -- 68.1 83.0
07/07/2020 21:00 1294.67 4.0 0.00 -- 70.4 75.0
07/07/2020 20:00 1294.66 5.0 0.00 -- 72.6 67.0
07/07/2020 19:00 1294.66 4.0 0.00 -- 72.9 68.0
07/07/2020 18:00 1294.67 4.0 0.00 -- 75.0 68.0
07/07/2020 17:00 1294.66 4.0 0.00 -- 77.1 61.0
07/07/2020 16:00 1294.65 4.0 0.00 -- 78.7 55.0
07/07/2020 15:00 1294.66 4.0 0.00 -- 78.3 55.0
07/07/2020 14:00 1294.67 3.0 0.00 -- 77.1 54.0
07/07/2020 13:00 1294.67 5.0 0.00 -- 74.1 60.0
07/07/2020 12:00 1294.67 4.0 0.00 -- 74.0 59.0
07/07/2020 11:00 1294.68 5.0 0.00 -- 72.9 59.0
07/07/2020 10:00 1294.68 4.0 0.00 -- 69.1 63.0
07/07/2020 09:00 1294.69 6.0 0.00 -- 65.0 86.0
07/07/2020 08:00 1294.69 6.0 0.00 -- 61.2 100.0
07/07/2020 07:00 1294.70 7.0 0.00 -- 61.0 100.0
07/07/2020 06:00 1294.69 7.0 0.00 -- 60.1 100.0
07/07/2020 05:00 1294.69 8.0 0.00 -- 60.4 99.0
07/07/2020 04:00 1294.70 7.0 0.00 -- 60.2 92.0
07/07/2020 03:00 1294.70 7.0 0.00 -- 59.5 88.0
07/07/2020 02:00 1294.70 8.0 0.00 -- 57.4 95.0
07/07/2020 01:00 1294.70 8.0 0.00 -- 58.8 92.0
07/07/2020 00:00 1294.70 8.0 0.00 0.00 60.8 90.0
07/06/2020 23:00 1294.70 8.0 0.00 -- 62.9 82.0
07/06/2020 22:00 1294.70 8.0 0.00 -- 65.9 72.0
07/06/2020 21:00 1294.69 8.0 0.00 -- 69.0 71.0
07/06/2020 20:00 1294.70 7.0 0.00 -- 73.4 60.0
07/06/2020 19:00 1294.71 8.0 0.00 -- 78.3 47.0
07/06/2020 18:00 1294.71 9.0 0.00 -- 80.0 37.0
07/06/2020 17:00 1294.71 9.0 0.00 -- 80.4 43.0
07/06/2020 16:00 1294.72 9.0 0.00 -- 80.4 39.0
07/06/2020 15:00 1294.72 9.0 0.00 -- 76.9 54.0
07/06/2020 14:00 1294.72 10.0 0.00 -- 76.6 50.0
07/06/2020 13:00 1294.72 11.0 0.00 -- 76.1 51.0
07/06/2020 12:00 1294.72 12.0 0.00 -- 74.5 58.0
07/06/2020 11:00 1294.73 10.0 0.00 -- 72.0 68.0
07/06/2020 10:00 1294.72 10.0 0.00 -- 67.5 92.0
07/06/2020 09:00 1294.72 11.0 0.00 -- 62.0 100.0
07/06/2020 08:00 1294.72 10.0 0.00 -- 57.7 100.0
07/06/2020 07:00 1294.72 10.0 0.00 -- 58.3 100.0
07/06/2020 06:00 1294.72 10.0 0.00 -- 57.4 100.0
07/06/2020 05:00 1294.71 10.0 0.00 -- 58.3 100.0
07/06/2020 04:00 1294.72 10.0 0.00 -- 59.3 100.0
07/06/2020 03:00 1294.72 10.0 0.00 -- 60.8 100.0
07/06/2020 02:00 1294.72 10.0 0.00 -- 61.5 100.0
07/06/2020 01:00 1294.72 10.0 0.00 -- 61.6 100.0
07/06/2020 00:00 1294.72 11.0 0.00 0.00 61.8 100.0
07/05/2020 23:00 1294.72 10.0 0.02 -- 62.9 100.0
07/05/2020 22:00 1294.76 9.0 0.09 -- 65.1 100.0
07/05/2020 21:00 1294.71 16.0 0.02 -- 66.7 100.0
07/05/2020 20:00 1294.71 9.0 0.00 -- 74.3 61.0
07/05/2020 19:00 1294.71 9.0 0.00 -- 84.2 37.0
07/05/2020 18:00 1294.72 9.0 0.00 -- 83.4 36.0
07/05/2020 17:00 1294.72 9.0 0.00 -- 83.0 34.0
07/05/2020 16:00 1294.72 10.0 0.00 -- 84.3 32.0
07/05/2020 15:00 1294.71 11.0 0.00 -- 82.2 37.0
07/05/2020 14:00 1294.72 10.0 0.00 -- 80.9 34.0
07/05/2020 13:00 1294.72 9.0 0.00 -- 79.8 32.0
07/05/2020 12:00 1294.72 11.0 0.00 -- 78.9 36.0
07/05/2020 11:00 1294.72 11.0 0.00 -- 78.4 39.0
07/05/2020 10:00 1294.72 11.0 0.00 -- 72.0 67.0
07/05/2020 09:00 1294.72 10.0 0.00 -- 66.2 86.0
07/05/2020 08:00 1294.73 11.0 0.00 -- 60.7 99.0
07/05/2020 07:00 1294.73 11.0 0.00 -- 57.8 99.0
07/05/2020 06:00 1294.73 11.0 0.00 -- 56.7 99.0
07/05/2020 05:00 1294.73 11.0 0.00 -- 55.4 98.0
07/05/2020 04:00 1294.73 11.0 0.00 -- 56.1 98.0
07/05/2020 03:00 1294.73 11.0 0.00 -- 56.7 99.0
07/05/2020 02:00 1294.73 12.0 0.00 -- 58.4 96.0
07/05/2020 01:00 1294.73 12.0 0.00 -- 60.4 96.0
07/05/2020 00:00 1294.73 12.0 0.00 0.13 62.4 87.0
07/04/2020 23:00 1294.74 12.0 0.00 -- 61.3 88.0
07/04/2020 22:00 1294.74 12.0 0.00 -- 65.9 78.0
07/04/2020 21:00 1294.73 12.0 0.00 -- 71.4 63.0
07/04/2020 20:00 1294.73 13.0 0.00 -- 80.9 43.0
07/04/2020 19:00 1294.74 12.0 0.00 -- 83.7 36.0
07/04/2020 18:00 1294.74 12.0 0.00 -- 84.2 36.0
07/04/2020 17:00 1294.75 12.0 0.00 -- 85.0 33.0
07/04/2020 16:00 1294.75 14.0 0.00 -- 83.4 29.0
07/04/2020 15:00 1294.76 13.0 0.00 -- 81.6 40.0
07/04/2020 14:00 1294.76 14.0 0.00 -- 80.4 40.0
07/04/2020 13:00 1294.75 14.0 0.00 -- 79.1 49.0
07/04/2020 12:00 1294.74 14.0 0.00 -- 78.8 54.0
07/04/2020 11:00 1294.74 14.0 0.00 -- 75.8 62.0
07/04/2020 10:00 1294.74 14.0 0.00 -- 68.9 77.0
07/04/2020 09:00 1294.74 13.0 0.00 -- 63.2 99.0
07/04/2020 08:00 1294.74 13.0 0.00 -- 60.6 100.0
07/04/2020 07:00 1294.74 13.0 0.00 -- 59.2 100.0
07/04/2020 06:00 1294.75 13.0 0.00 -- 58.4 100.0
07/04/2020 05:00 1294.75 14.0 0.00 -- 57.3 100.0
07/04/2020 04:00 1294.75 14.0 0.00 -- 56.9 100.0
07/04/2020 03:00 1294.74 14.0 0.00 -- 57.8 100.0
07/04/2020 02:00 1294.74 14.0 0.00 -- 60.6 99.0
07/04/2020 01:00 1294.76 14.0 0.00 -- 61.8 99.0
07/04/2020 00:00 1294.76 15.0 0.00 0.00 62.4 100.0
07/03/2020 23:00 1294.76 15.0 0.00 -- 62.8 99.0
07/03/2020 22:00 1294.75 15.0 0.00 -- 63.3 94.0
07/03/2020 21:00 1294.75 15.0 0.00 -- 64.4 92.0
07/03/2020 20:00 1294.76 14.0 0.00 -- 64.9 95.0
07/03/2020 19:00 1294.76 15.0 0.00 -- 65.9 91.0
07/03/2020 18:00 1294.76 15.0 0.00 -- 66.5 92.0
07/03/2020 17:00 1294.75 16.0 0.00 -- 65.6 100.0
07/03/2020 16:00 1294.75 15.0 0.00 -- 65.0 100.0
07/03/2020 15:00 1294.76 15.0 0.00 -- 65.8 100.0
07/03/2020 14:00 1294.75 15.0 0.00 -- 65.1 100.0
07/03/2020 13:00 1294.75 15.0 0.00 -- 69.1 97.0
07/03/2020 12:00 1294.76 15.0 0.00 -- 70.4 87.0
07/03/2020 11:00 1294.76 16.0 0.00 -- 69.8 93.0
07/03/2020 10:00 1294.76 18.0 0.00 -- 71.3 85.0
07/03/2020 09:00 1294.76 16.0 0.00 -- 70.2 89.0
07/03/2020 08:00 1294.76 16.0 0.00 -- 69.7 89.0
07/03/2020 07:00 1294.76 15.0 0.00 -- 67.2 99.0
07/03/2020 06:00 1294.76 17.0 0.00 -- 67.7 96.0
07/03/2020 05:00 1294.76 17.0 0.00 -- 66.5 100.0
07/03/2020 04:00 1294.76 16.0 0.00 -- 67.3 99.0
07/03/2020 03:00 1294.76 16.0 0.00 -- 67.1 99.0
07/03/2020 02:00 1294.77 15.0 0.00 -- 68.8 92.0
07/03/2020 01:00 1294.77 17.0 0.00 -- 68.0 100.0
07/03/2020 00:00 1294.76 17.0 0.00 0.00 69.1 96.0
07/02/2020 23:00 1294.77 16.0 0.00 -- 70.4 99.0
07/02/2020 22:00 1294.77 17.0 0.00 -- 71.7 96.0
07/02/2020 21:00 1294.76 17.0 0.00 -- 74.3 87.0
07/02/2020 20:00 1294.77 17.0 0.00 -- 83.6 54.0
07/02/2020 19:00 1294.77 17.0 0.00 -- 85.4 48.0
07/02/2020 18:00 1294.77 17.0 0.00 -- 84.6 45.0
07/02/2020 17:00 1294.77 17.0 0.00 -- 88.7 41.0
07/02/2020 16:00 1294.76 17.0 0.00 -- 88.2 41.0
07/02/2020 15:00 1294.77 17.0 0.00 -- 85.3 44.0
07/02/2020 14:00 1294.77 17.0 0.00 -- 82.2 48.0
07/02/2020 13:00 1294.77 18.0 0.00 -- 81.7 45.0
07/02/2020 12:00 1294.77 18.0 0.00 -- 81.3 51.0
07/02/2020 11:00 1294.76 18.0 0.00 -- 78.3 61.0
07/02/2020 10:00 1294.76 16.0 0.00 -- 71.7 86.0
07/02/2020 09:00 1294.76 16.0 0.00 -- 64.5 100.0
07/02/2020 08:00 1294.76 16.0 0.00 -- 59.7 100.0
07/02/2020 07:00 1294.76 15.0 0.00 -- 57.9 100.0
07/02/2020 06:00 1294.76 16.0 0.00 -- 57.9 100.0
07/02/2020 05:00 1294.76 15.0 0.00 -- 57.8 100.0
07/02/2020 04:00 1294.75 15.0 0.00 -- 58.4 100.0
07/02/2020 03:00 1294.75 15.0 0.00 -- 58.5 100.0
07/02/2020 02:00 1294.75 15.0 0.00 -- 59.2 100.0
07/02/2020 01:00 1294.75 14.0 0.00 -- 59.7 100.0
07/02/2020 00:00 1294.75 14.0 0.00 0.00 60.9 100.0
07/01/2020 23:00 1294.74 14.0 0.00 -- 61.4 100.0
07/01/2020 22:00 1294.74 14.0 0.00 -- 62.9 100.0
07/01/2020 21:00 1294.74 13.0 0.00 -- 65.6 100.0
07/01/2020 20:00 1294.74 13.0 0.00 -- 67.3 100.0
07/01/2020 19:00 1294.74 12.0 0.00 -- 67.3 99.0
07/01/2020 18:00 1294.74 12.0 0.01 -- 71.4 86.0
07/01/2020 17:00 1294.70 13.0 0.26 -- 64.8 100.0
07/01/2020 16:00 1294.70 10.0 0.00 -- 75.2 64.0
07/01/2020 15:00 1294.70 7.0 0.00 -- 70.2 75.0
07/01/2020 14:00 1294.69 8.0 0.00 -- 66.1 91.0
07/01/2020 13:00 1294.68 6.0 0.00 -- 68.7 83.0
07/01/2020 12:00 1294.69 6.0 0.00 -- 67.3 96.0
07/01/2020 11:00 1294.68 6.0 0.00 -- 65.7 100.0
07/01/2020 10:00 1294.69 6.0 0.00 -- 64.7 100.0
07/01/2020 09:00 1294.68 6.0 0.00 -- 63.2 100.0
07/01/2020 08:00 1294.68 5.0 0.00 -- 61.5 100.0
07/01/2020 07:00 1294.68 5.0 0.01 -- 60.4 100.0
07/01/2020 06:00 1294.67 5.0 0.00 -- 60.5 100.0
07/01/2020 05:00 1294.67 4.0 0.01 -- 60.8 100.0
07/01/2020 04:00 1294.68 4.0 0.05 -- 60.7 100.0
07/01/2020 03:00 1294.66 4.0 0.01 -- 60.4 100.0
07/01/2020 02:00 1294.65 4.0 0.01 -- 60.8 100.0
07/01/2020 01:00 1294.65 3.0 0.00 -- 60.9 100.0
07/01/2020 00:00 1294.65 3.0 0.00 0.36 60.8 100.0
06/30/2020 23:00 1294.65 3.0 0.02 -- 61.2 100.0
06/30/2020 22:00 1294.64 2.0 0.04 -- 61.6 100.0
06/30/2020 21:00 1294.64 2.0 0.03 -- 62.7 100.0
06/30/2020 20:00 1294.66 3.0 0.02 -- 64.5 100.0
06/30/2020 19:00 1294.62 1.0 0.00 -- 65.5 100.0
06/30/2020 18:00 1294.62 1.0 0.02 -- 65.0 100.0
06/30/2020 17:00 1294.61 1.0 0.03 -- 64.2 100.0
06/30/2020 16:00 1294.61 0.0 0.00 -- 67.4 100.0
06/30/2020 15:00 1294.60 0.0 0.04 -- 65.4 100.0
06/30/2020 14:00 1294.59 0.0 0.02 -- 66.4 100.0
06/30/2020 13:00 1294.60 0.0 0.07 -- 63.8 100.0
06/30/2020 12:00 1294.60 0.0 0.01 -- 64.3 100.0
06/30/2020 11:00 1294.59 0.0 0.01 -- 64.9 99.0
06/30/2020 10:00 1294.60 0.0 0.00 -- 62.9 100.0
06/30/2020 09:00 1294.60 0.0 0.00 -- 62.5 100.0
06/30/2020 08:00 1294.59 0.0 0.00 -- 61.3 100.0
06/30/2020 07:00 1294.59 0.0 0.00 -- 60.2 100.0
06/30/2020 06:00 1294.60 0.0 0.00 -- 59.8 100.0
06/30/2020 05:00 1294.59 0.0 0.00 -- 59.8 100.0
06/30/2020 04:00 1294.60 0.0 0.00 -- 59.4 100.0
06/30/2020 03:00 1294.59 0.0 0.01 -- 59.3 100.0
06/30/2020 02:00 1294.60 0.0 0.01 -- 59.5 100.0
06/30/2020 01:00 1294.59 0.0 0.02 -- 59.5 100.0
06/30/2020 00:00 1294.59 0.0 0.02 0.35 60.5 100.0
06/29/2020 23:00 1294.59 0.0 0.00 -- 61.1 100.0
06/29/2020 22:00 1294.59 0.0 0.00 -- 61.1 100.0
06/29/2020 21:00 1294.59 0.0 0.00 -- 61.7 100.0
06/29/2020 20:00 1294.59 0.0 0.00 -- 62.4 100.0
06/29/2020 19:00 1294.60 0.0 0.00 -- 64.3 100.0
06/29/2020 18:00 1294.60 0.0 0.02 -- 63.8 100.0
06/29/2020 17:00 1294.62 0.0 0.16 -- 62.7 100.0
06/29/2020 16:00 1294.55 1.0 0.04 -- 67.4 100.0
06/29/2020 15:00 1294.58 0.0 0.00 -- 72.0 71.0
06/29/2020 14:00 1294.56 0.0 0.00 -- 67.7 83.0
06/29/2020 13:00 1294.57 0.0 0.00 -- 70.2 82.0
06/29/2020 12:00 1294.56 0.0 0.00 -- 67.8 93.0
06/29/2020 11:00 1294.56 0.0 0.00 -- 66.4 99.0
06/29/2020 10:00 1294.56 0.0 0.00 -- 65.8 100.0
06/29/2020 09:00 1294.55 0.0 0.01 -- 63.2 100.0
06/29/2020 08:00 1294.55 0.0 0.00 -- 62.3 100.0
06/29/2020 07:00 1294.55 0.0 0.00 -- 61.5 100.0
06/29/2020 06:00 1294.56 0.0 0.00 -- 62.1 100.0
06/29/2020 05:00 1294.55 0.0 0.00 -- 62.3 100.0
06/29/2020 04:00 1294.56 0.0 0.01 -- 62.5 100.0
06/29/2020 03:00 1294.55 0.0 0.00 -- 62.6 100.0
06/29/2020 02:00 1294.56 0.0 0.00 -- 62.0 100.0
06/29/2020 01:00 1294.54 0.0 0.02 -- 62.5 100.0
06/29/2020 00:00 1294.53 0.0 0.18 0.28 63.2 100.0
06/28/2020 23:00 1294.58 0.0 0.02 -- 65.7 100.0
06/28/2020 22:00 1294.52 0.0 0.01 -- 67.9 100.0
06/28/2020 21:00 1294.52 0.0 0.00 -- 69.5 91.0
06/28/2020 20:00 1294.53 0.0 0.00 -- 71.6 85.0
06/28/2020 19:00 1294.53 0.0 0.00 -- 73.6 79.0
06/28/2020 18:00 1294.52 0.0 0.00 -- 77.2 64.0
06/28/2020 17:00 1294.51 0.0 0.00 -- 74.4 70.0
06/28/2020 16:00 1294.51 0.0 0.00 -- 75.2 65.0
06/28/2020 15:00 1294.52 0.0 0.00 -- 74.0 67.0
06/28/2020 14:00 1294.51 0.0 0.00 -- 72.3 71.0
06/28/2020 13:00 1294.51 0.0 0.00 -- 71.9 72.0
06/28/2020 12:00 1294.52 0.0 0.00 -- 71.8 72.0
06/28/2020 11:00 1294.51 0.0 0.00 -- 72.3 70.0
06/28/2020 10:00 1294.50 0.0 0.00 -- 68.3 83.0
06/28/2020 09:00 1294.50 0.0 0.00 -- 61.5 100.0
06/28/2020 08:00 1294.52 0.0 0.00 -- 59.3 100.0
06/28/2020 07:00 1294.52 0.0 0.00 -- 58.4 100.0
06/28/2020 06:00 1294.52 0.0 0.00 -- 57.4 100.0
06/28/2020 05:00 1294.52 0.0 0.00 -- 57.3 100.0
06/28/2020 04:00 1294.52 0.0 0.00 -- 58.4 100.0
06/28/2020 03:00 1294.52 0.0 0.00 -- 58.3 100.0
06/28/2020 02:00 1294.51 0.0 0.00 -- 58.2 100.0
06/28/2020 01:00 1294.52 0.0 0.00 -- 60.3 100.0
06/28/2020 00:00 1294.52 0.0 0.00 0.21 63.0 89.0
06/27/2020 23:00 1294.52 0.0 0.00 -- 65.2 84.0
06/27/2020 22:00 1294.52 0.0 0.00 -- 65.7 83.0
06/27/2020 21:00 1294.52 0.0 0.00 -- 66.0 80.0
06/27/2020 20:00 1294.52 0.0 0.00 -- 68.1 72.0
06/27/2020 19:00 1294.52 0.0 0.00 -- 67.7 69.0
06/27/2020 18:00 1294.51 0.0 0.00 -- 68.4 70.0
06/27/2020 17:00 1294.51 0.0 0.00 -- 69.4 64.0
06/27/2020 16:00 1294.50 0.0 0.00 -- 70.1 62.0
06/27/2020 15:00 1294.51 0.0 0.00 -- 73.0 53.0
06/27/2020 14:00 1294.52 0.0 0.00 -- 70.6 66.0
06/27/2020 13:00 1294.53 0.0 0.00 -- 70.6 60.0
06/27/2020 12:00 1294.52 0.0 0.00 -- 71.2 60.0
06/27/2020 11:00 1294.52 0.0 0.00 -- 69.7 60.0
06/27/2020 10:00 1294.51 0.0 0.00 -- 68.6 60.0
06/27/2020 09:00 1294.52 0.0 0.00 -- 61.3 82.0
06/27/2020 08:00 1294.53 0.0 0.00 -- 54.5 99.0
06/27/2020 07:00 1294.53 0.0 0.00 -- 52.0 99.0
06/27/2020 06:00 1294.53 0.0 0.00 -- 51.8 99.0
06/27/2020 05:00 1294.52 0.0 0.00 -- 52.1 99.0
06/27/2020 04:00 1294.53 0.0 0.00 -- 53.2 99.0
06/27/2020 03:00 1294.53 0.0 0.00 -- 53.7 96.0
06/27/2020 02:00 1294.52 0.0 0.00 -- 54.7 93.0
06/27/2020 01:00 1294.53 0.0 0.00 -- 55.6 92.0
06/27/2020 00:00 1294.53 0.0 0.00 0.00 58.2 89.0
06/26/2020 23:00 1294.53 0.0 0.00 -- 59.9 81.0
06/26/2020 22:00 1294.53 0.0 0.00 -- 63.2 77.0
06/26/2020 21:00 1294.53 0.0 0.00 -- 68.4 68.0
06/26/2020 20:00 1294.53 0.0 0.00 -- 75.7 41.0
06/26/2020 19:00 1294.53 0.0 0.00 -- 79.0 36.0
06/26/2020 18:00 1294.53 0.0 0.00 -- 78.5 41.0
06/26/2020 17:00 1294.53 0.0 0.00 -- 74.3 59.0
06/26/2020 16:00 1294.53 0.0 0.00 -- 70.6 73.0
06/26/2020 15:00 1294.52 0.0 0.05 -- 61.7 100.0
06/26/2020 14:00 1294.51 0.0 0.00 -- 75.2 47.0
06/26/2020 13:00 1294.51 0.0 0.00 -- 73.7 50.0
06/26/2020 12:00 1294.52 0.0 0.00 -- 73.9 52.0
06/26/2020 11:00 1294.51 0.0 0.00 -- 71.0 56.0
06/26/2020 10:00 1294.51 0.0 0.00 -- 66.6 66.0
06/26/2020 09:00 1294.51 0.0 0.00 -- 64.5 73.0
06/26/2020 08:00 1294.52 0.0 0.00 -- 61.1 77.0
06/26/2020 07:00 1294.52 0.0 0.00 -- 55.4 95.0
06/26/2020 06:00 1294.52 0.0 0.00 -- 56.4 91.0
06/26/2020 05:00 1294.52 0.0 0.00 -- 58.8 83.0
06/26/2020 04:00 1294.52 0.0 0.00 -- 60.4 79.0
06/26/2020 03:00 1294.52 0.0 0.00 -- 61.4 76.0
06/26/2020 02:00 1294.51 0.0 0.00 -- 63.8 71.0
06/26/2020 01:00 1294.52 0.0 0.00 -- 61.8 82.0
06/26/2020 00:00 1294.53 0.0 0.00 0.05 62.1 82.0
06/25/2020 23:00 1294.53 0.0 0.00 -- 64.4 67.0
06/25/2020 22:00 1294.52 0.0 0.00 -- 64.2 69.0
06/25/2020 21:00 1294.52 0.0 0.00 -- 70.3 52.0
06/25/2020 20:00 1294.52 0.0 0.00 -- 75.5 37.0
06/25/2020 19:00 1294.51 0.0 0.00 -- 77.8 37.0
06/25/2020 18:00 1294.51 0.0 0.00 -- 75.3 39.0
06/25/2020 17:00 1294.53 0.0 0.00 -- 77.0 35.0
06/25/2020 16:00 1294.51 0.0 0.00 -- 76.0 34.0
06/25/2020 15:00 1294.50 0.0 0.00 -- 76.4 36.0
06/25/2020 14:00 1294.50 0.0 0.00 -- 74.5 36.0
06/25/2020 13:00 1294.50 0.0 0.00 -- 73.5 37.0
06/25/2020 12:00 1294.50 0.0 0.00 -- 71.9 40.0
06/25/2020 11:00 1294.51 0.0 0.00 -- 70.3 45.0
06/25/2020 10:00 1294.53 0.0 0.00 -- 67.9 57.0
06/25/2020 09:00 1294.52 0.0 0.00 -- 62.3 69.0
06/25/2020 08:00 1294.54 0.0 0.00 -- 54.2 99.0
06/25/2020 07:00 1294.54 0.0 0.00 -- 52.6 100.0
06/25/2020 06:00 1294.53 0.0 0.00 -- 52.5 99.0
06/25/2020 05:00 1294.54 0.0 0.00 -- 52.6 99.0
06/25/2020 04:00 1294.54 0.0 0.00 -- 53.6 98.0
06/25/2020 03:00 1294.54 0.0 0.00 -- 54.6 99.0
06/25/2020 02:00 1294.54 0.0 0.00 -- 55.4 99.0
06/25/2020 01:00 1294.54 0.0 0.00 -- 56.3 98.0
06/25/2020 00:00 1294.54 0.0 0.00 0.00 57.9 94.0
06/24/2020 23:00 1294.54 0.0 0.00 -- 60.0 83.0
06/24/2020 22:00 1294.54 0.0 0.00 -- 63.6 72.0
06/24/2020 21:00 1294.54 0.0 0.00 -- 72.0 54.0
06/24/2020 20:00 1294.54 0.0 0.00 -- 74.4 47.0
06/24/2020 19:00 1294.55 0.0 0.00 -- 76.8 45.0
06/24/2020 18:00 1294.55 0.0 0.00 -- 78.2 41.0
06/24/2020 17:00 1294.55 0.0 0.00 -- 77.5 49.0
06/24/2020 16:00 1294.53 0.0 0.00 -- 77.1 53.0
06/24/2020 15:00 1294.53 0.0 0.00 -- 74.6 67.0
06/24/2020 14:00 1294.54 0.0 0.04 -- 70.4 98.0
06/24/2020 13:00 1294.55 0.0 0.00 -- 73.2 78.0
06/24/2020 12:00 1294.53 0.0 0.00 -- 71.2 89.0
06/24/2020 11:00 1294.54 0.0 0.00 -- 68.6 100.0
06/24/2020 10:00 1294.53 0.0 0.00 -- 68.3 100.0
06/24/2020 09:00 1294.53 0.0 0.00 -- 67.8 100.0
06/24/2020 08:00 1294.54 0.0 0.02 -- 66.5 100.0
06/24/2020 07:00 1294.54 0.0 0.00 -- 67.2 100.0
06/24/2020 06:00 1294.54 0.0 0.00 -- 67.0 99.0
06/24/2020 05:00 1294.54 0.0 0.00 -- 67.0 99.0
06/24/2020 04:00 1294.55 0.0 0.00 -- 67.0 99.0
06/24/2020 03:00 1294.54 0.0 0.00 -- 67.4 95.0
06/24/2020 02:00 1294.54 0.0 0.00 -- 68.5 90.0
06/24/2020 01:00 1294.54 0.0 0.00 -- 69.4 85.0
06/24/2020 00:00 1294.54 0.0 0.00 0.06 71.2 79.0
06/23/2020 23:00 1294.54 0.0 0.00 -- 72.6 77.0
06/23/2020 22:00 1294.54 0.0 0.00 -- 74.7 72.0
06/23/2020 21:00 1294.54 0.0 0.00 -- 77.6 67.0
06/23/2020 20:00 1294.54 0.0 0.00 -- 78.8 62.0
06/23/2020 19:00 1294.53 0.0 0.00 -- 84.1 50.0
06/23/2020 18:00 1294.54 0.0 0.00 -- 86.0 47.0
06/23/2020 17:00 1294.51 0.0 0.00 -- 85.4 50.0
06/23/2020 16:00 1294.54 0.0 0.00 -- 83.8 50.0
06/23/2020 15:00 1294.53 0.0 0.00 -- 86.2 42.0
06/23/2020 14:00 1294.54 0.0 0.00 -- 84.7 41.0
06/23/2020 13:00 1294.54 0.0 0.00 -- 84.0 50.0
06/23/2020 12:00 1294.54 0.0 0.00 -- 82.5 53.0
06/23/2020 11:00 1294.55 0.0 0.00 -- 81.7 58.0
06/23/2020 10:00 1294.56 0.0 0.00 -- 76.5 77.0
06/23/2020 09:00 1294.56 0.0 0.00 -- 68.6 100.0
06/23/2020 08:00 1294.56 0.0 0.00 -- 66.7 100.0
06/23/2020 07:00 1294.56 0.0 0.00 -- 64.3 100.0
06/23/2020 06:00 1294.56 0.0 0.00 -- 64.5 100.0
06/23/2020 05:00 1294.56 0.0 0.00 -- 64.5 100.0
06/23/2020 04:00 1294.56 0.0 0.00 -- 65.0 100.0
06/23/2020 03:00 1294.56 0.0 0.00 -- 65.0 100.0
06/23/2020 02:00 1294.57 0.0 0.00 -- 65.9 100.0
06/23/2020 01:00 1294.57 0.0 0.00 -- 66.5 100.0
06/23/2020 00:00 1294.57 0.0 0.00 0.00 68.2 100.0
06/22/2020 23:00 1294.57 0.0 0.00 -- 69.4 100.0
06/22/2020 22:00 1294.57 0.0 0.00 -- 71.5 94.0
06/22/2020 21:00 1294.57 0.0 0.00 -- 74.4 84.0
06/22/2020 20:00 1294.57 0.0 0.00 -- 77.0 74.0
06/22/2020 19:00 1294.57 0.0 0.00 -- 80.9 67.0
06/22/2020 18:00 1294.57 0.0 0.01 -- 77.5 77.0
06/22/2020 17:00 1294.57 0.0 0.00 -- 79.3 67.0
06/22/2020 16:00 1294.57 0.0 0.00 -- 82.8 60.0
06/22/2020 15:00 1294.58 0.0 0.00 -- 82.0 62.0
06/22/2020 14:00 1294.58 0.0 0.00 -- 78.3 67.0
06/22/2020 13:00 1294.58 0.0 0.00 -- 76.2 69.0
06/22/2020 12:00 1294.57 0.0 0.00 -- 70.9 84.0
06/22/2020 11:00 1294.58 0.0 0.00 -- 69.6 90.0
06/22/2020 10:00 1294.58 0.0 0.00 -- 67.6 99.0
06/22/2020 09:00 1294.58 0.0 0.00 -- 66.2 100.0
06/22/2020 08:00 1294.57 0.0 0.00 -- 65.5 100.0
06/22/2020 07:00 1294.57 0.0 0.00 -- 65.6 100.0
06/22/2020 06:00 1294.58 0.0 0.00 -- 66.0 100.0
06/22/2020 05:00 1294.58 0.0 0.00 -- 66.6 100.0
06/22/2020 04:00 1294.58 0.0 0.00 -- 67.5 100.0
06/22/2020 03:00 1294.58 0.0 0.00 -- 66.9 100.0
06/22/2020 02:00 1294.58 0.0 0.00 -- 65.4 100.0
06/22/2020 01:00 1294.58 0.0 0.00 -- 66.2 99.0
06/22/2020 00:00 1294.58 0.0 0.00 0.01 67.6 91.0
06/21/2020 23:00 1294.58 -- 0.00 -- 67.5 91.2
06/21/2020 22:00 1294.58 -- 0.00 -- 67.4 91.4
06/21/2020 21:00 1294.58 -- 0.00 -- 67.2 91.7
06/21/2020 20:00 1294.58 -- 0.00 -- 67.1 91.9
06/21/2020 19:00 1294.58 -- 0.00 -- 67.0 92.1
06/21/2020 18:00 1294.58 -- 0.00 -- 66.9 92.3
06/21/2020 17:00 1294.58 -- 0.00 -- 66.8 92.5
06/21/2020 16:00 1294.58 -- 0.00 -- 66.7 92.7
06/21/2020 15:00 1294.58 -- 0.00 -- 66.5 93.0
06/21/2020 14:00 1294.58 -- 0.00 -- 66.4 93.2
06/21/2020 13:00 1294.58 -- 0.00 -- 66.3 93.4
06/21/2020 12:00 1294.59 -- 0.00 -- 66.2 93.6
06/21/2020 11:00 1294.59 -- 0.00 -- 66.1 93.8
06/21/2020 10:00 1294.59 -- 0.00 -- 66.0 94.0
06/21/2020 09:00 1294.59 -- 0.00 -- 65.8 94.3
06/21/2020 08:00 1294.59 -- 0.00 -- 65.7 94.5
06/21/2020 07:00 1294.59 -- 0.00 -- 65.6 94.7
06/21/2020 06:00 1294.59 -- 0.00 -- 65.5 94.9
06/21/2020 05:00 1294.59 -- 0.00 -- 65.4 95.1
06/21/2020 04:00 1294.59 -- 0.00 -- 65.3 95.3
06/21/2020 03:00 1294.59 -- 0.00 -- 65.1 95.6
06/21/2020 02:00 1294.59 -- 0.00 -- 65.0 95.8
06/21/2020 01:00 1294.59 -- 0.00 -- 64.9 96.0
06/21/2020 00:00 -- 0.0 0.00 0.00 -- --
06/20/2020 23:00 1294.59 -- 0.00 -- 69.5 89.0
06/20/2020 22:00 1294.59 0.0 0.00 -- 71.7 80.0
06/20/2020 21:00 1294.59 0.0 0.00 -- 75.1 73.0
06/20/2020 20:00 1294.59 0.0 0.00 -- 80.2 59.0
06/20/2020 19:00 1294.59 0.0 0.00 -- 84.6 45.0
06/20/2020 18:00 1294.58 0.0 0.00 -- 81.9 55.0
06/20/2020 17:00 1294.58 0.0 0.00 -- 80.3 56.0
06/20/2020 16:00 1294.59 0.0 0.00 -- 85.4 46.0
06/20/2020 15:00 1294.60 0.0 0.00 -- 87.2 42.0
06/20/2020 14:00 1294.58 0.0 0.00 -- 80.9 53.0
06/20/2020 13:00 1294.59 0.0 0.00 -- 83.0 50.0
06/20/2020 12:00 1294.59 0.0 0.00 -- 82.4 48.0
06/20/2020 11:00 1294.59 0.0 0.00 -- 80.9 53.0
06/20/2020 10:00 1294.59 0.0 0.00 -- 76.8 58.0
06/20/2020 09:00 1294.59 0.0 0.00 -- 68.6 84.0
06/20/2020 08:00 1294.58 0.0 0.00 -- 65.1 99.0
06/20/2020 07:00 1294.58 0.0 0.00 -- 62.7 100.0
06/20/2020 06:00 1294.58 0.0 0.00 -- 62.9 99.0
06/20/2020 05:00 1294.59 0.0 0.00 -- 62.6 99.0
06/20/2020 04:00 1294.59 0.0 0.00 -- 63.1 99.0
06/20/2020 03:00 1294.59 0.0 0.00 -- 64.1 92.0
06/20/2020 02:00 1294.58 0.0 0.00 -- 66.4 83.0
06/20/2020 01:00 1294.58 0.0 0.00 -- 68.4 75.0
06/20/2020 00:00 1294.59 0.0 0.00 0.00 69.2 71.0
06/19/2020 23:00 1294.58 0.0 0.00 -- 68.6 75.0
06/19/2020 22:00 1294.59 0.0 0.00 -- 69.9 73.0
06/19/2020 21:00 1294.59 0.0 0.00 -- 74.3 62.0
06/19/2020 20:00 1294.59 0.0 0.00 -- 80.7 48.0
06/19/2020 19:00 1294.59 0.0 0.00 -- 83.7 43.0
06/19/2020 18:00 1294.58 0.0 0.00 -- 84.5 40.0
06/19/2020 17:00 1294.59 0.0 0.00 -- 83.7 44.0
06/19/2020 16:00 1294.59 0.0 0.00 -- 83.1 48.0
06/19/2020 15:00 1294.59 0.0 0.00 -- 81.6 50.0
06/19/2020 14:00 1294.59 0.0 0.00 -- 78.9 51.0
06/19/2020 13:00 1294.59 0.0 0.00 -- 78.4 55.0
06/19/2020 12:00 1294.59 0.0 0.00 -- 76.6 66.0
06/19/2020 11:00 1294.60 0.0 0.00 -- 75.8 66.0
06/19/2020 10:00 1294.58 0.0 0.00 -- 69.6 82.0
06/19/2020 09:00 1294.59 0.0 0.00 -- 65.6 100.0
06/19/2020 08:00 1294.59 0.0 0.00 -- 64.8 100.0
06/19/2020 07:00 1294.59 0.0 0.00 -- 64.3 100.0
06/19/2020 06:00 1294.59 0.0 0.00 -- 64.4 100.0
06/19/2020 05:00 1294.58 0.0 0.00 -- 63.5 100.0
06/19/2020 04:00 1294.59 0.0 0.00 -- 63.3 100.0
06/19/2020 03:00 1294.60 0.0 0.00 -- 64.2 100.0
06/19/2020 02:00 1294.60 0.0 0.00 -- 65.0 99.0
06/19/2020 01:00 1294.59 0.0 0.00 -- 65.8 96.0
06/19/2020 00:00 1294.60 0.0 0.00 0.00 67.5 90.0
06/18/2020 23:00 1294.59 0.0 0.00 -- 69.9 81.0
06/18/2020 22:00 1294.59 0.0 0.00 -- 73.5 71.0
06/18/2020 21:00 1294.60 0.0 0.00 -- 77.5 59.0
06/18/2020 20:00 1294.59 0.0 0.00 -- 80.2 52.0
06/18/2020 19:00 1294.60 0.0 0.00 -- 84.1 40.0
06/18/2020 18:00 1294.59 0.0 0.00 -- 84.0 31.0
06/18/2020 17:00 1294.60 0.0 0.00 -- 84.4 34.0
06/18/2020 16:00 1294.60 0.0 0.00 -- 83.3 32.0
06/18/2020 15:00 1294.60 0.0 0.00 -- 82.5 30.0
06/18/2020 14:00 1294.59 0.0 0.00 -- 80.2 38.0
06/18/2020 13:00 1294.61 0.0 0.00 -- 80.6 33.0
06/18/2020 12:00 1294.61 0.0 0.00 -- 79.5 39.0
06/18/2020 11:00 1294.61 0.0 0.00 -- 77.8 44.0
06/18/2020 10:00 1294.60 0.0 0.00 -- 72.2 59.0
06/18/2020 09:00 1294.61 0.0 0.00 -- 65.2 73.0
06/18/2020 08:00 1294.61 0.0 0.00 -- 58.2 100.0
06/18/2020 07:00 1294.61 0.0 0.00 -- 55.0 100.0
06/18/2020 06:00 1294.61 0.0 0.00 -- 55.5 100.0
06/18/2020 05:00 1294.61 0.0 0.00 -- 55.1 99.0
06/18/2020 04:00 1294.61 0.0 0.00 -- 55.2 97.0
06/18/2020 03:00 1294.61 0.0 0.00 -- 55.8 86.0
06/18/2020 02:00 1294.60 0.0 0.00 -- 56.6 78.0
06/18/2020 01:00 1294.61 0.0 0.00 -- 55.0 78.0
06/18/2020 00:00 1294.61 0.0 0.00 0.00 57.3 75.0
06/17/2020 23:00 1294.61 0.0 0.00 -- 60.0 70.0
06/17/2020 22:00 1294.61 0.0 0.00 -- 64.9 65.0
06/17/2020 21:00 1294.61 0.0 0.00 -- 69.9 55.0
06/17/2020 20:00 1294.61 0.0 0.00 -- 77.6 36.0
06/17/2020 19:00 1294.61 0.0 0.00 -- 81.2 31.0
06/17/2020 18:00 1294.61 0.0 0.00 -- 84.4 24.0
06/17/2020 17:00 1294.62 0.0 0.00 -- 83.3 25.0
06/17/2020 16:00 1294.61 1.0 0.00 -- 82.3 28.0
06/17/2020 15:00 1294.62 0.0 0.00 -- 80.3 30.0
06/17/2020 14:00 1294.61 1.0 0.00 -- 78.7 29.0
06/17/2020 13:00 1294.61 0.0 0.00 -- 78.2 32.0
06/17/2020 12:00 1294.63 1.0 0.00 -- 77.3 34.0
06/17/2020 11:00 1294.62 1.0 0.00 -- 75.9 39.0
06/17/2020 10:00 1294.62 1.0 0.00 -- 67.9 49.0
06/17/2020 09:00 1294.62 1.0 0.00 -- 54.3 92.0
06/17/2020 08:00 1294.61 1.0 0.00 -- 47.8 98.0
06/17/2020 07:00 1294.62 1.0 0.00 -- 45.3 99.0
06/17/2020 06:00 1294.62 1.0 0.00 -- 45.5 99.0
06/17/2020 05:00 1294.62 0.0 0.00 -- 46.3 99.0
06/17/2020 04:00 1294.62 1.0 0.00 -- 46.9 99.0
06/17/2020 03:00 1294.62 1.0 0.00 -- 48.8 99.0
06/17/2020 02:00 1294.62 1.0 0.00 -- 49.3 96.0
06/17/2020 01:00 1294.62 1.0 0.00 -- 50.7 91.0
06/17/2020 00:00 1294.62 1.0 0.00 -- 53.4 87.0
06/16/2020 23:00 1294.63 1.0 0.00 -- 56.9 75.0
06/16/2020 22:00 1294.62 1.0 0.00 -- 61.1 61.0
06/16/2020 21:00 1294.62 1.0 0.00 -- 66.2 53.0
06/16/2020 20:00 1294.62 1.0 0.00 -- 71.3 40.0
06/16/2020 19:00 1294.62 1.0 0.00 -- 77.5 35.0
06/16/2020 18:00 1294.63 1.0 0.00 -- 76.7 33.0
06/16/2020 17:00 1294.62 0.0 0.00 -- 78.0 32.0
06/16/2020 16:00 1294.64 2.0 0.00 -- 76.5 31.0
06/16/2020 15:00 1294.63 1.0 0.00 -- 74.8 34.0
06/16/2020 14:00 1294.64 1.0 0.00 -- 72.9 39.0
06/16/2020 13:00 1294.63 1.0 0.00 -- 71.6 35.0
06/16/2020 12:00 1294.63 1.0 0.00 -- 71.6 34.0
06/16/2020 11:00 1294.63 1.0 0.00 -- 69.6 45.0
06/16/2020 10:00 1294.63 2.0 0.00 -- 64.2 60.0
06/16/2020 09:00 1294.63 1.0 0.00 -- 53.2 96.0
06/16/2020 08:00 1294.63 1.0 0.00 -- 46.8 99.0
06/16/2020 07:00 1294.63 1.0 0.00 -- 44.8 100.0
06/16/2020 06:00 1294.63 1.0 0.00 -- 43.7 99.0
06/16/2020 05:00 1294.63 1.0 0.00 -- 43.7 99.0
06/16/2020 04:00 1294.63 1.0 0.00 -- 44.3 99.0
06/16/2020 03:00 1294.63 1.0 0.00 -- 44.8 99.0
06/16/2020 02:00 1294.63 1.0 0.00 -- 45.7 99.0
06/16/2020 01:00 1294.63 1.0 0.00 -- 47.2 99.0
06/16/2020 00:00 1294.63 1.0 0.00 0.00 49.5 99.0
06/15/2020 23:00 1294.63 1.0 0.00 -- 50.9 95.0
06/15/2020 22:00 1294.63 1.0 0.00 -- 54.1 87.0
06/15/2020 21:00 1294.63 1.0 0.00 -- 59.8 69.0
06/15/2020 20:00 1294.63 2.0 0.00 -- 65.0 58.0
06/15/2020 19:00 1294.63 1.0 0.00 -- 65.1 53.0
06/15/2020 18:00 1294.63 2.0 0.00 -- 69.6 37.0
06/15/2020 17:00 1294.63 2.0 0.00 -- 65.8 48.0
06/15/2020 16:00 1294.63 2.0 0.00 -- 68.2 46.0
06/15/2020 15:00 1294.63 1.0 0.00 -- 65.0 51.0
06/15/2020 14:00 1294.64 2.0 0.00 -- 65.9 47.0
06/15/2020 13:00 1294.64 2.0 0.00 -- 64.5 49.0
06/15/2020 12:00 1294.64 3.0 0.00 -- 65.7 49.0
06/15/2020 11:00 1294.64 2.0 0.00 -- 65.4 50.0
06/15/2020 10:00 1294.64 2.0 0.00 -- 61.2 60.0
06/15/2020 09:00 1294.65 1.0 0.00 -- 54.0 82.0
06/15/2020 08:00 1294.64 2.0 0.00 -- 50.5 96.0
06/15/2020 07:00 1294.64 2.0 0.00 -- 48.8 99.0
06/15/2020 06:00 1294.64 2.0 0.00 -- 49.5 94.0
06/15/2020 05:00 1294.64 2.0 0.00 -- 49.5 95.0
06/15/2020 04:00 1294.64 2.0 0.00 -- 48.8 95.0
06/15/2020 03:00 1294.64 2.0 0.00 -- 47.4 99.0
06/15/2020 02:00 1294.64 2.0 0.00 -- 48.1 99.0
06/15/2020 01:00 1294.64 2.0 0.00 -- 49.4 92.0
06/15/2020 00:00 1294.64 2.0 0.00 0.00 51.6 81.0
06/14/2020 23:00 1294.64 2.0 0.00 -- 55.3 69.0
06/14/2020 22:00 1294.64 2.0 0.00 -- 56.9 70.0
06/14/2020 21:00 1294.64 2.0 0.00 -- 58.3 68.0
06/14/2020 20:00 1294.64 2.0 0.00 -- 60.7 57.0
06/14/2020 19:00 1294.64 2.0 0.00 -- 64.1 45.0
06/14/2020 18:00 1294.65 2.0 0.00 -- 63.9 49.0
06/14/2020 17:00 1294.65 2.0 0.00 -- 63.1 53.0
06/14/2020 16:00 1294.63 3.0 0.00 -- 63.2 49.0
06/14/2020 15:00 1294.65 2.0 0.00 -- 64.1 49.0
06/14/2020 14:00 1294.66 3.0 0.00 -- 63.6 49.0
06/14/2020 13:00 1294.65 2.0 0.00 -- 64.3 46.0
06/14/2020 12:00 1294.65 3.0 0.00 -- 60.8 49.0
06/14/2020 11:00 1294.66 3.0 0.00 -- 59.9 48.0
06/14/2020 10:00 1294.66 3.0 0.00 -- 57.1 55.0
06/14/2020 09:00 1294.65 4.0 0.00 -- 50.2 73.0
06/14/2020 08:00 1294.65 3.0 0.00 -- 46.3 91.0
06/14/2020 07:00 1294.65 3.0 0.00 -- 42.7 99.0
06/14/2020 06:00 1294.65 3.0 0.00 -- 42.4 99.0
06/14/2020 05:00 1294.65 3.0 0.00 -- 41.4 99.0
06/14/2020 04:00 1294.65 3.0 0.00 -- 43.1 93.0
06/14/2020 03:00 1294.65 3.0 0.00 -- 44.3 90.0
06/14/2020 02:00 1294.65 3.0 0.00 -- 43.6 94.0
06/14/2020 01:00 1294.65 3.0 0.00 -- 42.1 91.0
06/14/2020 00:00 1294.66 3.0 0.00 -- 42.6 88.0
06/13/2020 23:00 1294.66 3.0 0.00 -- 43.7 81.0
06/13/2020 22:00 1294.66 3.0 0.00 -- 47.6 72.0
06/13/2020 21:00 1294.67 4.0 0.00 -- 52.4 64.0
06/13/2020 20:00 1294.66 4.0 0.00 -- 54.1 56.0
06/13/2020 19:00 1294.70 5.0 0.00 -- 58.3 55.0
06/13/2020 18:00 1294.69 6.0 0.00 -- 59.4 49.0
06/13/2020 17:00 1294.68 6.0 0.00 -- 61.6 44.0
06/13/2020 16:00 1294.67 8.0 0.00 -- 63.8 41.0
06/13/2020 15:00 1294.67 4.0 0.00 -- 61.8 37.0
06/13/2020 14:00 1294.66 5.0 0.00 -- 61.4 39.0
06/13/2020 13:00 1294.67 4.0 0.00 -- 60.2 41.0
06/13/2020 12:00 1294.66 4.0 0.00 -- 59.1 45.0
06/13/2020 11:00 1294.67 3.0 0.00 -- 59.6 49.0
06/13/2020 10:00 1294.67 4.0 0.00 -- 56.5 54.0
06/13/2020 09:00 1294.68 4.0 0.00 -- 51.5 71.0
06/13/2020 08:00 1294.68 6.0 0.00 -- 46.4 92.0
06/13/2020 07:00 1294.67 5.0 0.00 -- 43.8 99.0
06/13/2020 06:00 1294.67 5.0 0.00 -- 44.6 91.0
06/13/2020 05:00 1294.67 5.0 0.00 -- 45.4 83.0
06/13/2020 04:00 1294.67 4.0 0.00 -- 46.3 81.0
06/13/2020 03:00 1294.67 5.0 0.00 -- 46.7 77.0
06/13/2020 02:00 1294.67 5.0 0.00 -- 50.1 62.0
06/13/2020 01:00 1294.67 5.0 0.00 -- 56.2 51.0
06/13/2020 00:00 1294.68 5.0 0.00 0.00 58.6 47.0
06/12/2020 23:00 1294.67 5.0 0.00 -- 60.7 46.0
06/12/2020 22:00 1294.68 6.0 0.00 -- 63.0 43.0
06/12/2020 21:00 1294.67 6.0 0.00 -- 65.1 37.0
06/12/2020 20:00 1294.67 5.0 0.00 -- 68.6 35.0
06/12/2020 19:00 1294.68 4.0 0.00 -- 72.1 34.0
06/12/2020 18:00 1294.66 3.0 0.00 -- 73.4 35.0
06/12/2020 17:00 1294.68 5.0 0.00 -- 74.2 34.0
06/12/2020 16:00 1294.66 4.0 0.00 -- 74.7 36.0
06/12/2020 15:00 1294.65 5.0 0.00 -- 73.6 38.0
06/12/2020 14:00 1294.67 4.0 0.00 -- 72.4 40.0
06/12/2020 13:00 1294.68 3.0 0.00 -- 72.5 44.0
06/12/2020 12:00 1294.66 5.0 0.00 -- 70.8 45.0
06/12/2020 11:00 1294.68 4.0 0.00 -- 70.5 48.0
06/12/2020 10:00 1294.67 4.0 0.00 -- 68.2 54.0
06/12/2020 09:00 1294.68 5.0 0.00 -- 59.8 75.0
06/12/2020 08:00 1294.68 5.0 0.00 -- 52.9 100.0
06/12/2020 07:00 1294.68 6.0 0.00 -- 51.8 100.0
06/12/2020 06:00 1294.69 6.0 0.00 -- 52.4 100.0
06/12/2020 05:00 1294.68 6.0 0.00 -- 53.6 100.0
06/12/2020 04:00 1294.69 6.0 0.00 -- 55.7 100.0
06/12/2020 03:00 1294.68 6.0 0.00 -- 58.4 100.0
06/12/2020 02:00 1294.68 6.0 0.00 -- 60.0 100.0
06/12/2020 01:00 1294.69 6.0 0.00 -- 63.5 96.0
06/12/2020 00:00 1294.69 6.0 0.00 -- 66.9 100.0
06/11/2020 23:00 1294.68 5.0 0.00 -- 68.2 100.0
06/11/2020 22:00 1294.67 5.0 0.00 -- 68.9 100.0
06/11/2020 21:00 1294.68 4.0 0.00 -- 70.6 97.0
06/11/2020 20:00 1294.66 5.0 0.00 -- 72.1 91.0
06/11/2020 19:00 1294.66 5.0 0.00 -- 71.6 93.0
06/11/2020 18:00 1294.66 4.0 0.00 -- 72.2 87.0
06/11/2020 17:00 1294.65 3.0 0.00 -- 75.5 79.0
06/11/2020 16:00 1294.67 2.0 0.00 -- 71.8 91.0
06/11/2020 15:00 1294.66 4.0 0.00 -- 72.4 88.0
06/11/2020 14:00 1294.65 3.0 0.03 -- 69.4 100.0
06/11/2020 13:00 1294.64 4.0 0.01 -- 68.0 100.0
06/11/2020 12:00 1294.66 2.0 0.12 -- 66.5 100.0
06/11/2020 11:00 1294.65 3.0 0.05 -- 63.1 100.0
06/11/2020 10:00 1294.65 3.0 0.00 -- 56.9 100.0
06/11/2020 09:00 1294.66 3.0 0.00 -- 56.3 100.0
06/11/2020 08:00 1294.66 3.0 0.01 -- 55.3 100.0
06/11/2020 07:00 1294.66 3.0 0.00 -- 54.3 100.0
06/11/2020 06:00 1294.66 3.0 0.14 -- 54.0 100.0
06/11/2020 05:00 1294.65 4.0 0.00 -- 54.9 100.0
06/11/2020 04:00 1294.65 3.0 0.00 -- 55.6 100.0
06/11/2020 03:00 1294.65 3.0 0.00 -- 54.8 99.0
06/11/2020 02:00 1294.65 3.0 0.00 -- 56.2 96.0
06/11/2020 01:00 1294.65 3.0 0.00 -- 56.3 95.0
06/11/2020 00:00 1294.65 3.0 0.00 -- 56.6 93.0
06/10/2020 23:00 1294.65 3.0 0.00 -- 57.1 91.0
06/10/2020 22:00 1294.65 3.0 0.00 -- 58.8 84.0
06/10/2020 21:00 1294.65 3.0 0.00 -- 60.5 80.0
06/10/2020 20:00 1294.65 3.0 0.00 -- 62.4 73.0
06/10/2020 19:00 1294.65 2.0 0.00 -- 64.1 68.0
06/10/2020 18:00 1294.66 3.0 0.00 -- 66.9 55.0
06/10/2020 17:00 1294.65 3.0 0.00 -- 67.8 51.0
06/10/2020 16:00 1294.66 4.0 0.00 -- 69.9 45.0
06/10/2020 15:00 1294.65 2.0 0.00 -- 72.6 42.0
06/10/2020 14:00 1294.66 2.0 0.00 -- 70.9 45.0
06/10/2020 13:00 1294.64 4.0 0.00 -- 70.5 49.0
06/10/2020 12:00 1294.64 3.0 0.00 -- 68.5 55.0
06/10/2020 11:00 1294.65 3.0 0.00 -- 66.1 58.0
06/10/2020 10:00 1294.66 3.0 0.00 -- 64.8 57.0
06/10/2020 09:00 1294.66 3.0 0.00 -- 59.4 69.0
06/10/2020 08:00 1294.66 4.0 0.00 -- 55.8 89.0
06/10/2020 07:00 1294.66 4.0 0.00 -- 53.2 93.0
06/10/2020 06:00 1294.65 4.0 0.00 -- 53.4 93.0
06/10/2020 05:00 1294.66 3.0 0.00 -- 54.0 91.0
06/10/2020 04:00 1294.66 3.0 0.00 -- 55.4 87.0
06/10/2020 03:00 1294.66 4.0 0.00 -- 57.6 84.0
06/10/2020 02:00 1294.66 4.0 0.00 -- 58.4 83.0
06/10/2020 01:00 1294.66 3.0 0.00 -- 59.6 78.0
06/10/2020 00:00 1294.66 3.0 0.00 0.00 58.9 84.0
06/09/2020 23:00 1294.66 3.0 0.00 -- 59.8 79.0
06/09/2020 22:00 1294.66 3.0 0.00 -- 61.4 75.0
06/09/2020 21:00 1294.66 4.0 0.00 -- 63.4 69.0
06/09/2020 20:00 1294.66 4.0 0.00 -- 64.6 68.0
06/09/2020 19:00 1294.66 4.0 0.00 -- 68.4 58.0
06/09/2020 18:00 1294.66 4.0 0.00 -- 72.1 50.0
06/09/2020 17:00 1294.69 4.0 0.00 -- 70.4 51.0
06/09/2020 16:00 1294.66 4.0 0.00 -- 74.4 41.0
06/09/2020 15:00 1294.66 4.0 0.00 -- 71.5 40.0
06/09/2020 14:00 1294.66 3.0 0.00 -- 65.3 53.0
06/09/2020 13:00 1294.65 4.0 0.00 -- 60.7 61.0
06/09/2020 12:00 1294.65 3.0 0.00 -- 60.9 57.0
06/09/2020 11:00 1294.65 3.0 0.00 -- 60.2 65.0
06/09/2020 10:00 1294.66 3.0 0.00 -- 55.8 87.0
06/09/2020 09:00 1294.66 3.0 0.00 -- 53.1 87.0
06/09/2020 08:00 1294.66 4.0 0.00 -- 52.4 88.0
06/09/2020 07:00 1294.66 4.0 0.00 -- 52.1 88.0
06/09/2020 06:00 1294.66 4.0 0.00 -- 51.8 87.0
06/09/2020 05:00 1294.66 4.0 0.00 -- 51.2 84.0
06/09/2020 04:00 1294.67 3.0 0.00 -- 50.9 83.0
06/09/2020 03:00 1294.66 4.0 0.00 -- 50.5 91.0
06/09/2020 02:00 1294.66 4.0 0.00 -- 50.5 89.0
06/09/2020 01:00 1294.66 4.0 0.00 -- 49.2 92.0
06/09/2020 00:00 1294.66 4.0 0.00 -- 50.6 88.0
06/08/2020 23:00 1294.67 3.0 0.00 -- 54.6 84.0
06/08/2020 22:00 1294.67 4.0 0.00 -- 55.6 65.0
06/08/2020 21:00 1294.67 4.0 0.00 -- 63.8 47.0
06/08/2020 20:00 1294.67 5.0 0.00 -- 68.3 36.0
06/08/2020 19:00 1294.69 5.0 0.00 -- 72.3 34.0
06/08/2020 18:00 1294.68 6.0 0.00 -- 72.6 33.0
06/08/2020 17:00 1294.69 6.0 0.00 -- 72.3 32.0
06/08/2020 16:00 1294.68 6.0 0.00 -- 71.4 34.0
06/08/2020 15:00 1294.66 6.0 0.00 -- 69.2 33.0
06/08/2020 14:00 1294.69 6.0 0.00 -- 67.3 40.0
06/08/2020 13:00 1294.71 6.0 0.00 -- 66.7 39.0
06/08/2020 12:00 1294.71 5.0 0.00 -- 65.4 39.0
06/08/2020 11:00 1294.68 7.0 0.00 -- 64.9 39.0
06/08/2020 10:00 1294.68 6.0 0.00 -- 61.7 46.0
06/08/2020 09:00 1294.68 5.0 0.00 -- 55.0 56.0
06/08/2020 08:00 1294.68 6.0 0.00 -- 45.3 99.0
06/08/2020 07:00 1294.67 6.0 0.00 -- 42.2 100.0
06/08/2020 06:00 1294.68 5.0 0.00 -- 41.4 100.0
06/08/2020 05:00 1294.68 5.0 0.00 -- 42.1 100.0
06/08/2020 04:00 1294.68 5.0 0.00 -- 43.4 100.0
06/08/2020 03:00 1294.68 5.0 0.00 -- 44.2 99.0
06/08/2020 02:00 1294.68 6.0 0.00 -- 44.1 99.0
06/08/2020 01:00 1294.68 5.0 0.00 -- 45.4 99.0
06/08/2020 00:00 1294.68 6.0 0.00 0.00 47.7 89.0
06/07/2020 23:00 1294.68 -- 0.00 -- 49.8 85.1
06/07/2020 22:00 1294.69 -- 0.00 -- 52.0 81.2
06/07/2020 21:00 1294.69 -- 0.00 -- 54.1 77.3
06/07/2020 20:00 1294.69 -- 0.00 -- 56.3 73.4
06/07/2020 19:00 1294.70 -- 0.00 -- 58.4 69.6
06/07/2020 18:00 1294.70 -- 0.00 -- 60.5 65.7
06/07/2020 17:00 1294.70 -- 0.00 -- 62.7 61.8
06/07/2020 16:00 1294.71 -- 0.00 -- 64.8 57.9
06/07/2020 15:00 1294.71 -- 0.00 -- 61.1 54.0
06/07/2020 14:00 1294.71 10.0 0.00 -- 59.9 62.0
06/07/2020 13:00 1294.72 9.0 0.00 -- 59.8 60.0
06/07/2020 12:00 1294.72 10.0 0.00 -- 58.2 68.0
06/07/2020 11:00 1294.73 11.0 0.00 -- 57.2 66.0
06/07/2020 10:00 1294.72 15.0 0.00 -- 55.6 72.0
06/07/2020 09:00 1294.72 9.0 0.00 -- 53.3 79.0
06/07/2020 08:00 1294.69 10.0 0.00 -- 52.4 83.0
06/07/2020 07:00 1294.71 7.0 0.00 -- 52.6 88.0
06/07/2020 06:00 1294.72 8.0 0.00 -- 52.6 86.0
06/07/2020 05:00 1294.71 9.0 0.00 -- 54.2 97.0
06/07/2020 04:00 1294.70 10.0 0.00 -- 52.4 100.0
06/07/2020 03:00 1294.71 9.0 0.00 -- 54.0 92.0
06/07/2020 02:00 1294.70 10.0 0.00 -- 53.9 98.0
06/07/2020 01:00 1294.71 10.0 0.01 -- 54.0 100.0
06/07/2020 00:00 1294.70 9.0 0.00 0.01 52.8 100.0
06/06/2020 23:00 1294.71 7.0 0.00 -- 54.6 100.0
06/06/2020 22:00 1294.73 8.0 0.35 -- 56.4 100.0
06/06/2020 21:00 1294.67 14.0 0.00 -- 64.5 100.0
06/06/2020 20:00 1294.67 5.0 0.01 -- 66.2 92.0
06/06/2020 19:00 1294.69 6.0 0.00 -- 72.1 57.0
06/06/2020 18:00 1294.70 6.0 0.00 -- 77.7 50.0
06/06/2020 17:00 1294.70 7.0 0.00 -- 73.4 57.0
06/06/2020 16:00 1294.70 8.0 0.00 -- 75.8 44.0
06/06/2020 15:00 1294.67 14.0 0.00 -- 80.5 42.0
06/06/2020 14:00 1294.67 5.0 0.00 -- 80.4 45.0
06/06/2020 13:00 1294.67 6.0 0.00 -- 77.2 60.0
06/06/2020 12:00 1294.66 7.0 0.00 -- 76.0 66.0
06/06/2020 11:00 1294.67 4.0 0.00 -- 73.3 78.0
06/06/2020 10:00 1294.66 4.0 0.00 -- 66.8 100.0
06/06/2020 09:00 1294.67 3.0 0.00 -- 66.2 100.0
06/06/2020 08:00 1294.68 4.0 0.00 -- 65.8 100.0
06/06/2020 07:00 1294.68 5.0 0.00 -- 65.5 100.0
06/06/2020 06:00 1294.67 5.0 0.00 -- 65.5 100.0
06/06/2020 05:00 1294.67 4.0 0.00 -- 65.7 100.0
06/06/2020 04:00 1294.67 4.0 0.00 -- 66.1 100.0
06/06/2020 03:00 1294.67 4.0 0.00 -- 66.3 100.0
06/06/2020 02:00 1294.67 4.0 0.00 -- 67.2 100.0
06/06/2020 01:00 1294.67 5.0 0.00 -- 68.4 100.0
06/06/2020 00:00 1294.66 4.0 0.00 -- 69.7 99.0
06/05/2020 23:00 1294.66 4.0 0.00 -- 67.3 100.0
06/05/2020 22:00 1294.67 4.0 0.00 -- 69.1 94.0
06/05/2020 21:00 1294.67 5.0 0.00 -- 73.7 77.0
06/05/2020 20:00 1294.66 4.0 0.00 -- 77.2 65.0
06/05/2020 19:00 1294.66 5.0 0.00 -- 80.1 59.0
06/05/2020 18:00 1294.66 4.0 0.00 -- 80.6 58.0
06/05/2020 17:00 1294.67 4.0 0.00 -- 78.9 60.0
06/05/2020 16:00 1294.67 4.0 0.00 -- 77.1 61.0
06/05/2020 15:00 1294.67 4.0 0.00 -- 73.1 70.0
06/05/2020 14:00 1294.67 5.0 0.00 -- 70.7 75.0
06/05/2020 13:00 1294.67 5.0 0.00 -- 69.6 80.0
06/05/2020 12:00 1294.67 5.0 0.00 -- 70.1 77.0
06/05/2020 11:00 1294.68 4.0 0.00 -- 71.0 72.0
06/05/2020 10:00 1294.68 6.0 0.00 -- 68.8 79.0
06/05/2020 09:00 1294.67 6.0 0.00 -- 66.7 84.0
06/05/2020 08:00 1294.68 5.0 0.00 -- 64.9 88.0
06/05/2020 07:00 1294.67 4.0 0.00 -- 64.3 84.0
06/05/2020 06:00 1294.67 5.0 0.00 -- 64.9 75.0
06/05/2020 05:00 1294.67 5.0 0.00 -- 63.0 75.0
06/05/2020 04:00 1294.67 5.0 0.00 -- 61.6 81.0
06/05/2020 03:00 1294.68 5.0 0.00 -- 62.3 78.0
06/05/2020 02:00 1294.67 5.0 0.00 -- 61.7 79.0
06/05/2020 01:00 1294.68 5.0 0.00 -- 62.1 79.0
06/05/2020 00:00 1294.68 5.0 0.00 0.00 63.3 78.0
06/04/2020 23:00 1294.68 6.0 0.00 -- 63.6 76.0
06/04/2020 22:00 1294.68 5.0 0.00 -- 65.4 72.0
06/04/2020 21:00 1294.69 6.0 0.00 -- 70.4 60.0
06/04/2020 20:00 1294.68 6.0 0.00 -- 78.1 39.0
06/04/2020 19:00 1294.67 5.0 0.00 -- 80.1 35.0
06/04/2020 18:00 1294.67 7.0 0.00 -- 80.3 32.0
06/04/2020 17:00 1294.67 4.0 0.00 -- 80.1 34.0
06/04/2020 16:00 1294.67 5.0 0.00 -- 79.5 36.0
06/04/2020 15:00 1294.69 4.0 0.00 -- 78.1 36.0
06/04/2020 14:00 1294.67 5.0 0.00 -- 76.2 40.0
06/04/2020 13:00 1294.67 5.0 0.00 -- 74.7 47.0
06/04/2020 12:00 1294.68 5.0 0.00 -- 72.6 54.0
06/04/2020 11:00 1294.68 5.0 0.00 -- 69.2 58.0
06/04/2020 10:00 1294.68 5.0 0.00 -- 66.3 68.0
06/04/2020 09:00 1294.68 6.0 0.00 -- 61.1 97.0
06/04/2020 08:00 1294.68 5.0 0.00 -- 53.1 100.0
06/04/2020 07:00 1294.68 6.0 0.00 -- 51.2 100.0
06/04/2020 06:00 1294.69 6.0 0.00 -- 51.8 100.0
06/04/2020 05:00 1294.69 7.0 0.00 -- 51.7 100.0
06/04/2020 04:00 1294.69 7.0 0.00 -- 52.3 100.0
06/04/2020 03:00 1294.68 6.0 0.00 -- 53.0 100.0
06/04/2020 02:00 1294.69 6.0 0.00 -- 54.5 100.0
06/04/2020 01:00 1294.69 7.0 0.00 -- 56.1 100.0
06/04/2020 00:00 1294.69 7.0 0.00 0.00 59.4 100.0
06/03/2020 23:00 1294.68 7.0 0.00 -- 60.1 100.0
06/03/2020 22:00 1294.69 6.0 0.00 -- 61.2 100.0
06/03/2020 21:00 1294.69 7.0 0.00 -- 62.3 100.0
06/03/2020 20:00 1294.69 6.0 0.03 -- 62.9 100.0
06/03/2020 19:00 1294.70 8.0 0.12 -- 64.1 100.0
06/03/2020 18:00 1294.67 9.0 0.00 -- 71.2 61.0
06/03/2020 17:00 1294.65 6.0 0.00 -- 71.4 63.0
06/03/2020 16:00 1294.66 5.0 0.00 -- 69.6 67.0
06/03/2020 15:00 1294.68 3.0 0.00 -- 66.3 74.0
06/03/2020 14:00 1294.68 5.0 0.00 -- 67.4 66.0
06/03/2020 13:00 1294.69 5.0 0.00 -- 68.2 65.0
06/03/2020 12:00 1294.68 5.0 0.00 -- 66.9 66.0
06/03/2020 11:00 1294.69 5.0 0.00 -- 64.3 69.0
06/03/2020 10:00 1294.67 6.0 0.00 -- 58.9 76.0
06/03/2020 09:00 1294.66 6.0 0.00 -- 54.2 86.0
06/03/2020 08:00 1294.67 5.0 0.00 -- 50.1 100.0
06/03/2020 07:00 1294.67 5.0 0.00 -- 48.6 100.0
06/03/2020 06:00 1294.68 5.0 0.00 -- 49.2 100.0
06/03/2020 05:00 1294.67 5.0 0.00 -- 49.1 100.0
06/03/2020 04:00 1294.67 6.0 0.01 -- 49.1 100.0
06/03/2020 03:00 1294.67 4.0 0.01 -- 49.8 100.0
06/03/2020 02:00 1294.69 4.0 0.00 -- 50.2 100.0
06/03/2020 01:00 1294.68 5.0 0.00 -- 50.4 100.0
06/03/2020 00:00 1294.68 5.0 0.00 0.17 50.6 100.0
06/02/2020 23:00 1294.68 5.0 0.00 -- 51.0 100.0
06/02/2020 22:00 1294.68 5.0 0.00 -- 51.4 100.0
06/02/2020 21:00 1294.68 5.0 0.00 -- 53.0 99.0
06/02/2020 20:00 1294.67 6.0 0.03 -- 53.9 89.0
06/02/2020 19:00 1294.67 6.0 0.00 -- 60.8 47.0
06/02/2020 18:00 1294.66 5.0 0.00 -- 62.4 46.0
06/02/2020 17:00 1294.67 5.0 0.00 -- 61.9 46.0
06/02/2020 16:00 1294.66 5.0 0.00 -- 62.3 45.0
06/02/2020 15:00 1294.67 5.0 0.01 -- 64.0 42.0
06/02/2020 14:00 1294.67 4.0 0.00 -- 61.7 47.0
06/02/2020 13:00 1294.67 3.0 0.00 -- 57.8 52.0
06/02/2020 12:00 1294.68 4.0 0.00 -- 57.2 53.0
06/02/2020 11:00 1294.69 5.0 0.00 -- 52.8 65.0
06/02/2020 10:00 1294.68 6.0 0.00 -- 50.6 74.0
06/02/2020 09:00 1294.68 6.0 0.00 -- 44.0 99.0
06/02/2020 08:00 1294.68 6.0 0.00 -- 39.7 100.0
06/02/2020 07:00 1294.68 6.0 0.00 -- 36.9 99.0
06/02/2020 06:00 1294.68 6.0 0.00 -- 36.1 99.0
06/02/2020 05:00 1294.68 6.0 0.00 -- 35.7 99.0
06/02/2020 04:00 1294.68 6.0 0.00 -- 37.7 100.0
06/02/2020 03:00 1294.68 6.0 0.00 -- 39.1 100.0
06/02/2020 02:00 1294.69 6.0 0.00 -- 37.5 99.0
06/02/2020 01:00 1294.68 6.0 0.00 -- 39.1 99.0
06/02/2020 00:00 1294.68 7.0 0.00 0.04 40.9 99.0
06/01/2020 23:00 1294.68 6.0 0.00 -- 43.9 95.0
06/01/2020 22:00 1294.69 5.0 0.00 -- 45.6 83.0
06/01/2020 21:00 1294.70 6.0 0.00 -- 49.7 70.0
06/01/2020 20:00 1294.70 7.0 0.00 -- 52.5 49.0
06/01/2020 19:00 1294.68 8.0 0.00 -- 53.9 48.0
06/01/2020 18:00 1294.71 8.0 0.00 -- 57.1 38.0
06/01/2020 17:00 1294.68 7.0 0.00 -- 58.2 30.0
06/01/2020 16:00 1294.72 6.0 0.00 -- 58.3 36.0
06/01/2020 15:00 1294.69 8.0 0.00 -- 53.8 38.0
06/01/2020 14:00 1294.70 7.0 0.00 -- 52.9 38.0
06/01/2020 13:00 1294.71 7.0 0.00 -- 50.8 49.0
06/01/2020 12:00 1294.69 10.0 0.00 -- 50.2 47.0
06/01/2020 11:00 1294.73 9.0 0.00 -- 52.1 43.0
06/01/2020 10:00 1294.70 8.0 0.00 -- 50.1 51.0
06/01/2020 09:00 1294.71 8.0 0.00 -- 43.1 71.0
06/01/2020 08:00 1294.70 8.0 0.00 -- 41.0 79.0
06/01/2020 07:00 1294.70 8.0 0.00 -- 33.5 97.0
06/01/2020 06:00 1294.70 7.0 0.00 -- 32.9 95.0
06/01/2020 05:00 1294.70 8.0 0.00 -- 33.2 92.0
06/01/2020 04:00 1294.70 8.0 0.00 -- 34.6 88.0
06/01/2020 03:00 1294.70 8.0 0.00 -- 36.8 84.0
06/01/2020 02:00 1294.70 7.0 0.00 -- 35.7 85.0
06/01/2020 01:00 1294.70 7.0 0.00 -- 35.2 82.0
06/01/2020 00:00 1294.70 8.0 0.00 0.00 37.5 73.0
05/31/2020 23:00 1294.71 8.0 0.00 -- 43.9 66.0
05/31/2020 22:00 1294.72 9.0 0.00 -- 45.6 62.0
05/31/2020 21:00 1294.73 9.0 0.00 -- 47.4 56.0
05/31/2020 20:00 1294.72 12.0 0.00 -- 50.5 55.0
05/31/2020 19:00 1294.73 10.0 0.00 -- 55.9 39.0
05/31/2020 18:00 1294.72 11.0 0.00 -- 56.5 35.0
05/31/2020 17:00 1294.74 14.0 0.00 -- 56.1 35.0
05/31/2020 16:00 1294.73 11.0 0.00 -- 55.5 38.0
05/31/2020 15:00 1294.76 11.0 0.00 -- 55.8 44.0
05/31/2020 14:00 1294.74 13.0 0.00 -- 56.1 37.0
05/31/2020 13:00 1294.77 14.0 0.00 -- 55.5 41.0
05/31/2020 12:00 1294.75 13.0 0.00 -- 55.6 43.0
05/31/2020 11:00 1294.74 18.0 0.00 -- 54.3 47.0
05/31/2020 10:00 1294.76 14.0 0.00 -- 52.1 54.0
05/31/2020 09:00 1294.76 15.0 0.00 -- 47.4 66.0
05/31/2020 08:00 1294.76 18.0 0.00 -- 47.1 73.0
05/31/2020 07:00 1294.76 13.0 0.00 -- 48.7 74.0
05/31/2020 06:00 1294.76 15.0 0.00 -- 51.9 74.0
05/31/2020 05:00 1294.76 14.0 0.00 -- 53.0 68.0
05/31/2020 04:00 1294.74 14.0 0.00 -- 54.6 75.0
05/31/2020 03:00 1294.74 15.0 0.00 -- 51.1 99.0
05/31/2020 02:00 1294.73 13.0 0.00 -- 54.4 90.0
05/31/2020 01:00 1294.73 12.0 0.01 -- 55.0 96.0
05/31/2020 00:00 1294.73 11.0 0.01 0.01 56.0 97.0
05/30/2020 23:00 1294.73 11.0 0.00 -- 59.2 77.0
05/30/2020 22:00 1294.74 11.0 0.00 -- 60.0 64.0
05/30/2020 21:00 1294.74 12.0 0.00 -- 64.8 53.0
05/30/2020 20:00 1294.75 13.0 0.00 -- 69.6 37.0
05/30/2020 19:00 1294.75 15.0 0.00 -- 72.7 34.0
05/30/2020 18:00 1294.74 14.0 0.00 -- 73.4 34.0
05/30/2020 17:00 1294.73 14.0 0.00 -- 73.5 39.0
05/30/2020 16:00 1294.75 12.0 0.00 -- 71.5 42.0
05/30/2020 15:00 1294.75 15.0 0.00 -- 70.1 46.0
05/30/2020 14:00 1294.75 14.0 0.00 -- 69.4 47.0
05/30/2020 13:00 1294.73 15.0 0.00 -- 67.9 47.0
05/30/2020 12:00 1294.76 15.0 0.00 -- 67.6 53.0
05/30/2020 11:00 1294.76 14.0 0.00 -- 65.0 57.0
05/30/2020 10:00 1294.74 16.0 0.00 -- 66.0 56.0
05/30/2020 09:00 1294.74 16.0 0.00 -- 64.2 63.0
05/30/2020 08:00 1294.73 13.0 0.00 -- 64.3 78.0
05/30/2020 07:00 1294.74 13.0 0.00 -- 64.5 93.0
05/30/2020 06:00 1294.72 13.0 0.00 -- 65.0 100.0
05/30/2020 05:00 1294.73 11.0 0.00 -- 65.3 100.0
05/30/2020 04:00 1294.74 11.0 0.00 -- 65.8 100.0
05/30/2020 03:00 1294.74 11.0 0.00 -- 66.8 96.0
05/30/2020 02:00 1294.73 13.0 0.00 -- 67.7 93.0
05/30/2020 01:00 1294.75 13.0 0.00 -- 68.7 94.0
05/30/2020 00:00 1294.73 14.0 0.00 -- 69.4 94.0
05/29/2020 23:00 1294.73 13.0 0.00 -- 70.5 90.0
05/29/2020 22:00 1294.73 11.0 0.00 -- 70.8 88.0
05/29/2020 21:00 1294.73 10.0 0.00 -- 72.3 83.0
05/29/2020 20:00 1294.70 9.0 0.00 -- 74.5 73.0
05/29/2020 19:00 1294.71 8.0 0.00 -- 77.2 66.0
05/29/2020 18:00 1294.72 8.0 0.00 -- 79.7 61.0
05/29/2020 17:00 1294.72 9.0 0.00 -- 81.8 57.0
05/29/2020 16:00 1294.74 9.0 0.00 -- 80.9 61.0
05/29/2020 15:00 1294.73 10.0 0.00 -- 78.4 68.0
05/29/2020 14:00 1294.74 2.0 -- -- 76.4 69.0
05/29/2020 13:00 1294.74 -- -- -- 76.1 69.1
05/29/2020 12:00 1294.74 -- -- -- 75.8 69.2
05/29/2020 11:00 1294.74 -- -- -- 75.5 69.3
05/29/2020 10:00 1294.74 -- -- -- 75.2 69.3
05/29/2020 09:00 1294.74 -- -- -- 74.9 69.4
05/29/2020 08:00 1294.74 -- -- -- 74.6 69.5
05/29/2020 07:00 1294.74 -- -- -- 74.3 69.6
05/29/2020 06:00 1294.74 -- -- -- 74.0 69.7
05/29/2020 05:00 1294.74 -- -- -- 73.7 69.8
05/29/2020 04:00 1294.75 -- -- -- 73.4 69.9
05/29/2020 03:00 1294.75 -- -- -- 73.1 70.0
05/29/2020 02:00 1294.75 -- -- -- 72.8 70.0
05/29/2020 01:00 1294.75 -- -- -- 72.4 70.1
05/29/2020 00:00 1294.75 -- -- -- 72.1 70.2
05/28/2020 23:00 1294.75 -- -- -- 71.8 70.3
05/28/2020 22:00 1294.75 -- -- -- 71.5 70.4
05/28/2020 21:00 1294.75 -- -- -- 71.2 70.5
05/28/2020 20:00 1294.75 -- -- -- 70.9 70.6
05/28/2020 19:00 1294.75 -- -- -- 70.6 70.7
05/28/2020 18:00 1294.75 -- -- -- 70.3 70.7
05/28/2020 17:00 1294.75 -- -- -- 70.0 70.8
05/28/2020 16:00 1294.75 -- -- -- 69.7 70.9
05/28/2020 15:00 1294.75 -- -- -- 69.4 71.0
05/28/2020 14:00 1294.75 -- -- -- 69.1 71.1
05/28/2020 13:00 1294.75 -- -- -- 68.8 71.2
05/28/2020 12:00 1294.75 -- -- -- 68.5 71.3
05/28/2020 11:00 1294.76 -- -- -- 68.2 71.4
05/28/2020 10:00 1294.76 -- -- -- 67.9 71.4
05/28/2020 09:00 1294.76 -- -- -- 67.6 71.5
05/28/2020 08:00 1294.76 -- -- -- 67.3 71.6
05/28/2020 07:00 1294.76 -- -- -- 67.0 71.7
05/28/2020 06:00 1294.76 -- -- -- 66.7 71.8
05/28/2020 05:00 1294.76 -- -- -- 66.4 71.9
05/28/2020 04:00 1294.76 -- -- -- 66.1 72.0
05/28/2020 03:00 1294.76 -- -- -- 65.8 72.1
05/28/2020 02:00 1294.76 -- -- -- 65.5 72.1
05/28/2020 01:00 1294.76 -- -- -- 65.2 72.2
05/28/2020 00:00 1294.76 -- -- -- 64.8 72.3
05/27/2020 23:00 1294.76 -- -- -- 64.5 72.4
05/27/2020 22:00 1294.76 -- -- -- 64.2 72.5
05/27/2020 21:00 1294.76 -- -- -- 63.9 72.6
05/27/2020 20:00 1294.76 -- -- -- 63.6 72.7
05/27/2020 19:00 1294.76 -- -- -- 63.3 72.8
05/27/2020 18:00 1294.76 -- -- -- 63.0 72.8
05/27/2020 17:00 1294.77 -- -- -- 62.7 72.9
05/27/2020 16:00 1294.77 -- -- -- 62.4 73.0
05/27/2020 15:00 1294.77 -- -- -- 62.1 73.1
05/27/2020 14:00 1294.77 -- -- -- 61.8 73.2
05/27/2020 13:00 1294.77 -- -- -- 61.5 73.3
05/27/2020 12:00 1294.77 -- -- -- 61.2 73.4
05/27/2020 11:00 1294.77 -- -- -- 60.9 73.5
05/27/2020 10:00 1294.77 -- -- -- 60.6 73.5
05/27/2020 09:00 1294.77 -- -- -- 60.3 73.6
05/27/2020 08:00 1294.77 -- -- -- 60.0 73.7
05/27/2020 07:00 1294.77 -- -- -- 59.7 73.8
05/27/2020 06:00 1294.77 -- -- -- 59.4 73.9
05/27/2020 05:00 1294.77 -- -- -- 59.1 74.0
05/27/2020 04:00 1294.77 -- -- -- 58.8 74.1
05/27/2020 03:00 1294.77 -- -- -- 58.5 74.2
05/27/2020 02:00 1294.77 -- -- -- 58.2 74.2
05/27/2020 01:00 1294.77 -- -- -- 57.9 74.3
05/27/2020 00:00 1294.77 -- -- -- 57.6 74.4
05/26/2020 23:00 1294.78 -- -- -- 57.3 74.5
05/26/2020 22:00 1294.78 -- -- -- 56.9 74.6
05/26/2020 21:00 1294.78 -- -- -- 56.6 74.7
05/26/2020 20:00 1294.78 -- -- -- 56.3 74.8
05/26/2020 19:00 1294.78 -- -- -- 56.0 74.8
05/26/2020 18:00 1294.78 -- -- -- 55.7 74.9
05/26/2020 17:00 1294.78 -- -- -- 55.4 75.0
05/26/2020 16:00 1294.78 -- -- -- 55.1 75.1
05/26/2020 15:00 1294.78 -- -- -- 54.8 75.2
05/26/2020 14:00 1294.78 -- -- -- 54.5 75.3
05/26/2020 13:00 1294.78 -- -- -- 54.2 75.4
05/26/2020 12:00 1294.78 -- -- -- 53.9 75.5
05/26/2020 11:00 1294.78 -- -- -- 53.6 75.5
05/26/2020 10:00 1294.78 -- -- -- 53.3 75.6
05/26/2020 09:00 1294.78 -- -- -- 53.0 75.7
05/26/2020 08:00 1294.78 -- -- -- 52.7 75.8
05/26/2020 07:00 1294.78 -- -- -- 52.4 75.9
05/26/2020 06:00 1294.78 -- -- -- 52.1 76.0
05/26/2020 05:00 1294.79 -- -- -- 51.8 76.1
05/26/2020 04:00 1294.79 -- -- -- 51.5 76.2
05/26/2020 03:00 1294.79 -- -- -- 51.2 76.2
05/26/2020 02:00 1294.79 -- -- -- 50.9 76.3
05/26/2020 01:00 1294.79 -- -- -- 50.6 76.4
05/26/2020 00:00 1294.79 -- -- -- 50.3 76.5
05/25/2020 23:00 1294.79 -- -- -- 50.0 76.6
05/25/2020 22:00 1294.79 -- -- -- 49.7 76.7
05/25/2020 21:00 1294.79 -- -- -- 49.3 76.8
05/25/2020 20:00 1294.79 -- -- -- 49.0 76.9
05/25/2020 19:00 1294.79 -- -- -- 48.7 76.9
05/25/2020 18:00 1294.79 -- -- -- 48.4 77.0
05/25/2020 17:00 1294.79 -- -- -- 48.1 77.1
05/25/2020 16:00 1294.79 -- -- -- 47.8 77.2
05/25/2020 15:00 1294.79 -- -- -- 47.5 77.3
05/25/2020 14:00 1294.79 -- -- -- 47.2 77.4
05/25/2020 13:00 1294.79 -- -- -- 46.9 77.5
05/25/2020 12:00 1294.79 -- -- -- 46.6 77.6
05/25/2020 11:00 1294.80 -- -- -- 46.3 77.6
05/25/2020 10:00 1294.80 -- -- -- 46.0 77.7
05/25/2020 09:00 1294.80 -- -- -- 45.7 77.8
05/25/2020 08:00 1294.80 -- -- -- 45.4 77.9
05/25/2020 07:00 1294.80 -- -- -- 45.1 78.0
05/25/2020 06:00 1294.80 -- -- -- 44.8 78.1
05/25/2020 05:00 1294.80 -- -- -- 44.5 78.2
05/25/2020 04:00 1294.80 -- -- -- 44.2 78.3
05/25/2020 03:00 1294.80 -- -- -- 43.9 78.3
05/25/2020 02:00 1294.80 -- -- -- 43.6 78.4
05/25/2020 01:00 1294.80 -- -- -- 43.3 78.5
05/25/2020 00:00 1294.80 -- -- -- 43.0 78.6
05/24/2020 23:00 1294.80 -- -- -- 42.7 78.7
05/24/2020 22:00 1294.80 -- -- -- 42.4 78.8
05/24/2020 21:00 1294.80 -- -- -- 42.1 78.9
05/24/2020 20:00 1294.80 -- -- -- 41.7 79.0
05/24/2020 19:00 1294.80 -- -- -- 41.4 79.0
05/24/2020 18:00 1294.80 -- -- -- 41.1 79.1
05/24/2020 17:00 1294.81 -- -- -- 40.8 79.2
05/24/2020 16:00 1294.81 -- -- -- 40.5 79.3
05/24/2020 15:00 1294.81 -- -- -- 40.2 79.4
05/24/2020 14:00 1294.81 -- -- -- 39.9 79.5
05/24/2020 13:00 1294.81 -- -- -- 39.6 79.6
05/24/2020 12:00 1294.81 -- -- -- 39.3 79.7
05/24/2020 11:00 1294.81 -- -- -- 39.0 79.7
05/24/2020 10:00 1294.81 -- -- -- 38.7 79.8
05/24/2020 09:00 1294.81 -- 0.00 -- 38.4 79.9
05/24/2020 08:00 1294.81 -- 0.00 -- 38.1 80.0
05/24/2020 07:00 1294.81 3.0 0.00 -- 36.0 81.0
05/24/2020 06:00 1294.81 3.0 0.00 -- 36.8 76.0
05/24/2020 05:00 1294.81 3.0 0.00 -- 38.0 70.0
05/24/2020 04:00 1294.81 3.0 0.00 -- 38.9 70.0
05/24/2020 03:00 1294.81 3.0 0.00 -- 40.5 66.0
05/24/2020 02:00 1294.82 3.0 0.00 -- 40.9 65.0
05/24/2020 01:00 1294.82 3.0 0.00 -- 42.4 58.0
05/24/2020 00:00 1294.83 3.0 0.00 -- 44.1 56.0
05/23/2020 23:00 1294.83 3.0 0.00 -- 45.9 47.0
05/23/2020 22:00 1294.83 3.0 0.00 -- 48.4 47.0
05/23/2020 21:00 1294.83 3.0 0.00 -- 52.3 41.0
05/23/2020 20:00 1294.82 3.0 0.00 -- 57.0 35.0
05/23/2020 19:00 1294.84 3.0 0.00 -- 61.1 32.0
05/23/2020 18:00 1294.83 3.0 0.00 -- 64.7 27.0
05/23/2020 17:00 1294.82 3.0 0.00 -- 67.1 23.0
05/23/2020 16:00 1294.82 3.0 0.00 -- 68.1 24.0
05/23/2020 15:00 1294.80 3.0 0.00 -- 68.8 18.0
05/23/2020 14:00 1294.83 3.0 0.00 -- 67.7 21.0
05/23/2020 13:00 1294.82 3.0 0.00 -- 66.7 25.0
05/23/2020 12:00 1294.84 3.0 0.00 -- 64.1 37.0
05/23/2020 11:00 1294.85 3.0 0.00 -- 63.3 41.0
05/23/2020 10:00 1294.85 4.0 0.00 -- 61.3 57.0
05/23/2020 09:00 1294.83 4.0 0.01 -- 60.8 100.0
05/23/2020 08:00 1294.84 3.0 0.00 -- 58.9 100.0
05/23/2020 07:00 1294.83 3.0 0.00 -- 58.7 99.0
05/23/2020 06:00 1294.84 3.0 0.00 -- 58.6 98.0
05/23/2020 05:00 1294.83 3.0 0.00 -- 59.6 90.0
05/23/2020 04:00 1294.83 3.0 0.00 -- 58.7 89.0
05/23/2020 03:00 1294.83 3.0 0.00 -- 57.0 89.0
05/23/2020 02:00 1294.83 4.0 0.00 -- 56.2 78.0
05/23/2020 01:00 1294.83 4.0 0.00 -- 54.1 76.0
05/23/2020 00:00 1294.84 3.0 0.00 0.01 56.0 76.0
05/22/2020 23:00 1294.84 4.0 0.00 -- 57.2 66.0
05/22/2020 22:00 1294.85 3.0 0.00 -- 61.6 54.0
05/22/2020 21:00 1294.84 4.0 0.00 -- 68.8 43.0
05/22/2020 20:00 1294.83 4.0 0.00 -- 77.3 25.0
05/22/2020 19:00 1294.85 4.0 0.00 -- 79.3 21.0
05/22/2020 18:00 1294.86 3.0 0.00 -- 81.9 18.0
05/22/2020 17:00 1294.83 3.0 0.00 -- 80.1 24.0
05/22/2020 16:00 1294.85 4.0 0.00 -- 79.2 24.0
05/22/2020 15:00 1294.84 4.0 0.00 -- 78.4 23.0
05/22/2020 14:00 1294.85 3.0 0.00 -- 75.5 29.0
05/22/2020 13:00 1294.86 4.0 0.00 -- 74.0 33.0
05/22/2020 12:00 1294.83 4.0 0.00 -- 70.4 40.0
05/22/2020 11:00 1294.82 4.0 0.00 -- 66.2 49.0
05/22/2020 10:00 1294.86 3.0 0.00 -- 64.1 54.0
05/22/2020 09:00 1294.85 4.0 0.00 -- 55.7 69.0
05/22/2020 08:00 1294.84 4.0 0.00 -- 50.8 84.0
05/22/2020 07:00 1294.84 3.0 0.00 -- 48.6 86.0
05/22/2020 06:00 1294.84 4.0 0.00 -- 48.2 85.0
05/22/2020 05:00 1294.84 4.0 0.00 -- 48.9 80.0
05/22/2020 04:00 1294.85 4.0 0.00 -- 50.2 72.0
05/22/2020 03:00 1294.84 4.0 0.00 -- 51.3 65.0
05/22/2020 02:00 1294.85 4.0 0.00 -- 51.0 66.0
05/22/2020 01:00 1294.85 4.0 0.00 -- 53.6 60.0
05/22/2020 00:00 1294.84 4.0 0.00 0.00 55.7 49.0
05/21/2020 23:00 1294.84 4.0 0.00 -- 57.3 38.0
05/21/2020 22:00 1294.85 4.0 0.00 -- 60.6 32.0
05/21/2020 21:00 1294.85 4.0 0.00 -- 66.1 27.0
05/21/2020 20:00 1294.85 4.0 0.00 -- 71.6 17.0
05/21/2020 19:00 1294.84 3.0 0.00 -- 73.8 15.0
05/21/2020 18:00 1294.84 3.0 0.00 -- 76.1 19.0
05/21/2020 17:00 1294.84 4.0 0.00 -- 75.8 16.0
05/21/2020 16:00 1294.85 4.0 0.00 -- 74.9 15.0
05/21/2020 15:00 1294.85 4.0 0.00 -- 73.1 14.0
05/21/2020 14:00 1294.85 4.0 0.00 -- 71.3 11.0
05/21/2020 13:00 1294.87 4.0 0.00 -- 69.4 14.0
05/21/2020 12:00 1294.87 4.0 0.00 -- 67.2 20.0
05/21/2020 11:00 1294.87 4.0 0.00 -- 63.0 31.0
05/21/2020 10:00 1294.86 4.0 0.00 -- 58.4 35.0
05/21/2020 09:00 1294.87 4.0 0.00 -- 51.9 39.0
05/21/2020 08:00 1294.86 4.0 0.00 -- 45.6 47.0
05/21/2020 07:00 1294.87 4.0 0.00 -- 38.7 70.0
05/21/2020 06:00 1294.87 4.0 0.00 -- 40.4 65.0
05/21/2020 05:00 1294.86 4.0 0.00 -- 42.6 62.0
05/21/2020 04:00 1294.87 4.0 0.00 -- 44.0 59.0
05/21/2020 03:00 1294.87 4.0 0.00 -- 46.2 54.0
05/21/2020 02:00 1294.87 4.0 0.00 -- 45.7 56.0
05/21/2020 01:00 1294.87 4.0 0.00 -- 43.7 61.0
05/21/2020 00:00 1294.88 4.0 0.00 0.00 44.9 68.0
05/20/2020 23:00 1294.88 4.0 0.00 -- 48.3 58.0
05/20/2020 22:00 1294.88 4.0 0.00 -- 51.9 46.0
05/20/2020 21:00 1294.88 4.0 0.00 -- 57.4 37.0
05/20/2020 20:00 1294.88 4.0 0.00 -- 63.4 31.0
05/20/2020 19:00 1294.89 5.0 0.00 -- 66.3 34.0
05/20/2020 18:00 1294.88 5.0 0.00 -- 68.1 22.0
05/20/2020 17:00 1294.88 5.0 0.00 -- 68.4 26.0
05/20/2020 16:00 1294.89 4.0 0.00 -- 67.3 24.0
05/20/2020 15:00 1294.89 5.0 0.00 -- 66.0 28.0
05/20/2020 14:00 1294.87 5.0 0.00 -- 63.7 31.0
05/20/2020 13:00 1294.90 5.0 0.00 -- 62.3 33.0
05/20/2020 12:00 1294.90 5.0 0.00 -- 61.1 30.0
05/20/2020 11:00 1294.90 5.0 0.00 -- 58.6 29.0
05/20/2020 10:00 1294.90 5.0 0.00 -- 58.1 32.0
05/20/2020 09:00 1294.90 5.0 0.00 -- 47.9 59.0
05/20/2020 08:00 1294.90 5.0 0.00 -- 37.2 99.0
05/20/2020 07:00 1294.90 5.0 0.00 -- 33.7 99.0
05/20/2020 06:00 1294.91 5.0 0.00 -- 34.4 99.0
05/20/2020 05:00 1294.90 5.0 0.00 -- 35.5 99.0
05/20/2020 04:00 1294.91 5.0 0.00 -- 37.5 99.0
05/20/2020 03:00 1294.91 5.0 0.00 -- 39.7 93.0
05/20/2020 02:00 1294.91 5.0 0.00 -- 40.3 90.0
05/20/2020 01:00 1294.91 5.0 0.00 -- 41.6 81.0
05/20/2020 00:00 1294.90 5.0 0.00 0.00 43.3 71.0
05/19/2020 23:00 1294.91 5.0 0.00 -- 46.2 61.0
05/19/2020 22:00 1294.91 5.0 0.00 -- 48.6 57.0
05/19/2020 21:00 1294.91 5.0 0.00 -- 51.7 50.0
05/19/2020 20:00 1294.91 5.0 0.00 -- 56.6 37.0
05/19/2020 19:00 1294.92 5.0 0.00 -- 58.7 37.0
05/19/2020 18:00 1294.92 5.0 0.00 -- 61.6 31.0
05/19/2020 17:00 1294.91 5.0 0.00 -- 62.4 31.0
05/19/2020 16:00 1294.90 6.0 0.00 -- 61.8 35.0
05/19/2020 15:00 1294.91 6.0 0.00 -- 60.6 31.0
05/19/2020 14:00 1294.93 6.0 0.00 -- 60.2 32.0
05/19/2020 13:00 1294.93 6.0 0.00 -- 59.7 33.0
05/19/2020 12:00 1294.93 6.0 0.00 -- 58.7 33.0
05/19/2020 11:00 1294.95 6.0 0.00 -- 57.6 41.0
05/19/2020 10:00 1294.96 6.0 0.00 -- 54.9 36.0
05/19/2020 09:00 1294.94 6.0 0.00 -- 48.8 45.0
05/19/2020 08:00 1294.95 6.0 0.00 -- 43.4 58.0
05/19/2020 07:00 1294.95 6.0 0.00 -- 39.2 76.0
05/19/2020 06:00 1294.95 6.0 0.00 -- 40.0 72.0
05/19/2020 05:00 1294.95 6.0 0.00 -- 42.0 76.0
05/19/2020 04:00 1294.94 6.0 0.00 -- 43.1 72.0
05/19/2020 03:00 1294.94 6.0 0.00 -- 44.9 62.0
05/19/2020 02:00 1294.95 6.0 0.00 -- 43.5 71.0
05/19/2020 01:00 1294.95 6.0 0.00 -- 44.4 97.0
05/19/2020 00:00 1294.95 6.0 0.00 0.00 45.2 94.0
05/18/2020 23:00 1294.95 6.0 0.00 -- 48.5 81.0
05/18/2020 22:00 1294.95 6.0 0.00 -- 49.3 80.0
05/18/2020 21:00 1294.95 -- 0.00 -- 54.5 65.7
05/18/2020 20:00 1294.95 -- 0.00 -- 59.8 51.3
05/18/2020 19:00 1294.95 -- 0.00 -- 65.0 37.0
05/18/2020 18:00 1294.95 6.0 0.00 -- 63.5 43.0
05/18/2020 17:00 1294.95 6.0 0.00 -- 66.2 40.0
05/18/2020 16:00 1294.95 6.0 0.00 -- 62.6 39.0
05/18/2020 15:00 1294.96 6.0 0.00 -- 59.8 55.0
05/18/2020 14:00 1294.96 6.0 0.00 -- 56.9 67.0
05/18/2020 13:00 1294.96 6.0 0.00 -- 55.0 83.0
05/18/2020 12:00 1294.95 6.0 0.00 -- 53.1 92.0
05/18/2020 11:00 1294.96 6.0 0.00 -- 50.7 100.0
05/18/2020 10:00 1294.95 6.0 0.05 -- 49.5 100.0
05/18/2020 09:00 1294.95 6.0 0.03 -- 50.1 100.0
05/18/2020 08:00 1294.95 6.0 0.03 -- 49.9 100.0
05/18/2020 07:00 1294.96 6.0 0.01 -- 49.3 100.0
05/18/2020 06:00 1294.95 6.0 0.01 -- 49.5 100.0
05/18/2020 05:00 1294.95 6.0 0.00 -- 50.3 100.0
05/18/2020 04:00 1294.95 6.0 0.00 -- 50.8 94.0
05/18/2020 03:00 1294.95 6.0 0.00 -- 51.1 95.0
05/18/2020 02:00 1294.95 6.0 0.00 -- 50.9 99.0
05/18/2020 01:00 1294.95 6.0 0.00 -- 51.0 99.0
05/18/2020 00:00 1294.95 6.0 0.00 0.13 51.6 98.0
05/17/2020 23:00 1294.95 6.0 0.00 -- 52.0 90.0
05/17/2020 22:00 1294.96 6.0 0.00 -- 53.0 87.0
05/17/2020 21:00 1294.96 6.0 0.00 -- 55.4 78.0
05/17/2020 20:00 1294.95 6.0 0.00 -- 59.2 64.0
05/17/2020 19:00 1294.94 6.0 0.00 -- 61.2 55.0
05/17/2020 18:00 1294.94 6.0 0.00 -- 63.1 52.0
05/17/2020 17:00 1294.95 6.0 0.00 -- 61.1 57.0
05/17/2020 16:00 1294.96 6.0 0.00 -- 60.3 58.0
05/17/2020 15:00 1294.95 6.0 0.00 -- 59.5 60.0
05/17/2020 14:00 1294.95 6.0 0.00 -- 58.6 61.0
05/17/2020 13:00 1294.94 6.0 0.00 -- 58.0 59.0
05/17/2020 12:00 1294.94 6.0 0.00 -- 55.4 66.0
05/17/2020 11:00 1294.95 6.0 0.00 -- 54.1 66.0
05/17/2020 10:00 1294.95 6.0 0.00 -- 50.6 77.0
05/17/2020 09:00 1294.96 6.0 0.00 -- 49.8 75.0
05/17/2020 08:00 1294.95 6.0 0.00 -- 47.4 85.0
05/17/2020 07:00 1294.95 6.0 0.00 -- 45.4 94.0
05/17/2020 06:00 1294.95 6.0 0.00 -- 45.6 99.0
05/17/2020 05:00 1294.96 6.0 0.00 -- 45.3 100.0
05/17/2020 04:00 1294.96 6.0 0.00 -- 45.2 100.0
05/17/2020 03:00 1294.96 6.0 0.00 -- 45.7 99.0
05/17/2020 02:00 1294.97 7.0 0.00 -- 46.3 99.0
05/17/2020 01:00 1294.97 6.0 0.00 -- 45.8 99.0
05/17/2020 00:00 1294.96 7.0 0.00 0.00 44.1 99.0
05/16/2020 23:00 1294.96 7.0 0.00 -- 45.3 94.0
05/16/2020 22:00 1294.96 7.0 0.00 -- 49.2 82.0
05/16/2020 21:00 1294.96 7.0 0.00 -- 52.1 74.0
05/16/2020 20:00 1294.96 6.0 0.00 -- 57.4 55.0
05/16/2020 19:00 1294.99 7.0 0.00 -- 58.8 57.0
05/16/2020 18:00 1294.99 7.0 0.00 -- 61.2 51.0
05/16/2020 17:00 1294.97 7.0 0.00 -- 59.8 53.0
05/16/2020 16:00 1294.98 7.0 0.00 -- 59.1 53.0
05/16/2020 15:00 1294.98 7.0 0.00 -- 57.3 56.0
05/16/2020 14:00 1294.98 7.0 0.00 -- 55.7 60.0
05/16/2020 13:00 1294.99 7.0 0.00 -- 55.2 66.0
05/16/2020 12:00 1294.98 7.0 0.00 -- 52.9 68.0
05/16/2020 11:00 1294.98 7.0 0.00 -- 53.2 71.0
05/16/2020 10:00 1294.98 7.0 0.00 -- 52.4 77.0
05/16/2020 09:00 1294.97 7.0 0.00 -- 51.9 80.0
05/16/2020 08:00 1294.95 7.0 0.00 -- 50.6 84.0
05/16/2020 07:00 1294.98 7.0 0.00 -- 50.4 93.0
05/16/2020 06:00 1294.96 7.0 0.00 -- 51.2 98.0
05/16/2020 05:00 1294.96 7.0 0.00 -- 51.8 99.0
05/16/2020 04:00 1294.93 7.0 0.00 -- 53.1 100.0
05/16/2020 03:00 1294.94 6.0 0.06 -- 55.8 100.0
05/16/2020 02:00 1294.92 6.0 0.00 -- 58.3 100.0
05/16/2020 01:00 1294.93 5.0 0.00 -- 58.3 100.0
05/16/2020 00:00 1294.94 5.0 0.00 0.06 58.2 100.0
05/15/2020 23:00 1294.92 6.0 0.00 -- 57.9 100.0
05/15/2020 22:00 1294.90 6.0 0.04 -- 58.2 100.0
05/15/2020 21:00 1294.85 7.0 0.34 -- 58.2 100.0
05/15/2020 20:00 1294.86 6.0 0.00 -- 70.5 57.0
05/15/2020 19:00 1294.85 4.0 0.00 -- 72.1 54.0
05/15/2020 18:00 1294.87 4.0 0.00 -- 73.5 49.0
05/15/2020 17:00 1294.86 4.0 0.00 -- 70.7 54.0
05/15/2020 16:00 1294.87 4.0 0.00 -- 69.6 55.0
05/15/2020 15:00 1294.86 4.0 0.00 -- 68.3 57.0
05/15/2020 14:00 1294.88 4.0 0.00 -- 67.0 57.0
05/15/2020 13:00 1294.88 4.0 0.00 -- 64.6 61.0
05/15/2020 12:00 1294.87 4.0 0.00 -- 62.4 63.0
05/15/2020 11:00 1294.85 4.0 0.00 -- 60.2 68.0
05/15/2020 10:00 1294.87 4.0 0.00 -- 53.9 81.0
05/15/2020 09:00 1294.87 4.0 0.00 -- 50.3 92.0
05/15/2020 08:00 1294.87 4.0 0.00 -- 49.5 93.0
05/15/2020 07:00 1294.87 4.0 0.00 -- 49.0 87.0
05/15/2020 06:00 1294.88 4.0 0.00 -- 48.2 83.0
05/15/2020 05:00 1294.88 4.0 0.00 -- 48.6 79.0
05/15/2020 04:00 1294.88 4.0 0.00 -- 49.4 76.0
05/15/2020 03:00 1294.88 4.0 0.00 -- 51.4 61.0
05/15/2020 02:00 1294.87 4.0 0.00 -- 50.8 45.0
05/15/2020 01:00 1294.88 5.0 0.00 -- 48.9 46.0
05/15/2020 00:00 1294.88 5.0 0.00 0.38 48.8 51.0
05/14/2020 23:00 1294.88 5.0 0.00 -- 49.8 46.0
05/14/2020 22:00 1294.88 4.0 0.00 -- 50.5 38.0
05/14/2020 21:00 1294.88 4.0 0.00 -- 54.1 32.0
05/14/2020 20:00 1294.89 4.0 0.00 -- 60.3 19.0
05/14/2020 19:00 1294.91 4.0 0.00 -- 63.5 12.0
05/14/2020 18:00 1294.89 4.0 0.00 -- 65.8 9.0
05/14/2020 17:00 1294.90 5.0 0.00 -- 65.2 9.0
05/14/2020 16:00 1294.88 4.0 0.00 -- 63.6 11.0
05/14/2020 15:00 1294.86 5.0 0.00 -- 62.0 15.0
05/14/2020 14:00 1294.85 4.0 0.00 -- 58.6 21.0
05/14/2020 13:00 1294.90 4.0 0.00 -- 57.1 19.0
05/14/2020 12:00 1294.90 5.0 0.00 -- 55.9 21.0
05/14/2020 11:00 1294.90 5.0 0.00 -- 53.4 24.0
05/14/2020 10:00 1294.89 5.0 0.00 -- 51.5 30.0
05/14/2020 09:00 1294.89 4.0 0.00 -- 43.6 42.0
05/14/2020 08:00 1294.90 5.0 0.00 -- 31.2 71.0
05/14/2020 07:00 1294.89 5.0 0.00 -- 28.3 73.0
05/14/2020 06:00 1294.90 5.0 0.00 -- 29.3 77.0
05/14/2020 05:00 1294.90 5.0 0.00 -- 30.5 68.0
05/14/2020 04:00 1294.90 5.0 0.00 -- 32.1 62.0
05/14/2020 03:00 1294.89 5.0 0.00 -- 40.5 48.0
05/14/2020 02:00 1294.90 5.0 0.00 -- 42.9 41.0
05/14/2020 01:00 1294.90 5.0 0.00 -- 39.6 45.0
05/14/2020 00:00 1294.89 5.0 0.00 0.00 36.5 53.0
05/13/2020 23:00 1294.91 5.0 0.00 -- 41.8 41.0
05/13/2020 22:00 1294.90 5.0 0.00 -- 46.1 31.0
05/13/2020 21:00 1294.90 5.0 0.00 -- 47.5 29.0
05/13/2020 20:00 1294.91 5.0 0.00 -- 49.5 27.0
05/13/2020 19:00 1294.92 5.0 0.00 -- 50.3 25.0
05/13/2020 18:00 1294.92 6.0 0.00 -- 52.5 23.0
05/13/2020 17:00 1294.98 6.0 0.00 -- 52.3 23.0
05/13/2020 16:00 1294.94 6.0 0.00 -- 51.1 24.0
05/13/2020 15:00 1294.95 6.0 0.00 -- 50.2 26.0
05/13/2020 14:00 1294.92 6.0 0.00 -- 48.3 28.0
05/13/2020 13:00 1294.92 5.0 0.00 -- 45.4 32.0
05/13/2020 12:00 1294.90 7.0 0.00 -- 44.2 31.0
05/13/2020 11:00 1294.93 5.0 0.00 -- 43.4 32.0
05/13/2020 10:00 1294.91 6.0 0.00 -- 40.7 40.0
05/13/2020 09:00 1294.92 5.0 0.00 -- 35.5 56.0
05/13/2020 08:00 1294.91 5.0 0.00 -- 32.0 68.0
05/13/2020 07:00 1294.92 5.0 0.00 -- 30.1 73.0
05/13/2020 06:00 1294.91 5.0 0.00 -- 30.4 74.0
05/13/2020 05:00 1294.91 5.0 0.00 -- 30.8 71.0
05/13/2020 04:00 1294.91 5.0 0.00 -- 31.2 69.0
05/13/2020 03:00 1294.91 5.0 0.00 -- 32.0 70.0
05/13/2020 02:00 1294.93 5.0 0.00 -- 32.9 66.0
05/13/2020 01:00 1294.92 5.0 0.00 -- 34.5 68.0
05/13/2020 00:00 1294.92 5.0 0.00 0.00 34.6 62.0
05/12/2020 23:00 1294.92 5.0 0.00 -- 36.1 60.0
05/12/2020 22:00 1294.94 5.0 0.00 -- 39.0 41.0
05/12/2020 21:00 1294.89 6.0 0.00 -- 40.3 36.0
05/12/2020 20:00 1294.89 5.0 0.00 -- 42.4 32.0
05/12/2020 19:00 1294.92 5.0 0.00 -- 43.2 33.0
05/12/2020 18:00 1294.91 6.0 0.00 -- 46.9 26.0
05/12/2020 17:00 -- -- -- -- 46.9 26.0
05/12/2020 16:00 -- -- -- -- 46.8 28.0
05/12/2020 15:00 -- -- -- -- 46.4 33.0
05/12/2020 14:00 -- -- -- -- 45.6 33.0
05/12/2020 13:00 -- -- -- -- 42.5 47.0
05/12/2020 12:00 -- -- -- -- 41.4 49.0
05/12/2020 11:00 -- -- -- -- 42.2 49.0
05/12/2020 10:00 -- -- -- -- 38.4 62.0
05/12/2020 09:00 -- -- -- -- 36.9 71.0
05/12/2020 08:00 -- -- -- -- 35.8 75.0
05/12/2020 07:00 -- -- -- -- 34.0 84.0
05/12/2020 06:00 -- -- -- -- 34.5 84.0
05/12/2020 05:00 -- -- -- -- 33.7 85.0
05/12/2020 04:00 -- -- -- -- 34.3 86.0
05/12/2020 03:00 -- -- -- -- 34.8 88.0
05/12/2020 02:00 -- -- -- -- 35.1 85.0
05/12/2020 01:00 -- -- -- -- 35.6 90.0
05/12/2020 00:00 -- -- -- 0.00 37.1 93.0